Data for 10/02/2010

Time Sea-Level Adjusted Pressure Absolute Pressure Temperature Relative Humidity Dew Point Precipitation   
(mb) (inHg) (mb) (inHg) (C) (F) (%) (C) (F) (mm) (in)
00:01 1026 30.3 855 25.25 13.1 55.5 62 6 42.8 13.45 0.53
00:02 1026 30.3 855 25.25 13 55.3 62 5.9 42.7 13.39 0.527
00:03 1026 30.3 855 25.25 12.9 55.3 62 5.9 42.6 13.32 0.524
00:04 1026 30.3 855 25.25 13 55.3 62 5.9 42.7 13.33 0.525
00:05 1026 30.3 855 25.25 12.9 55.2 63 6 42.8 13.26 0.522
00:06 1026 30.3 855 25.25 12.9 55.2 62 5.9 42.7 13.23 0.521
00:07 1026 30.3 855 25.25 12.9 55.1 62 5.9 42.5 13.23 0.521
00:08 1026 30.3 855 25.25 12.9 55.2 62 5.9 42.7 13.25 0.522
00:09 1026 30.3 855 25.25 12.8 55.1 63 5.9 42.7 13.18 0.519
00:10 1026 30.3 855 25.25 12.8 55 63 5.9 42.7 13.14 0.517
00:11 1026 30.3 855 25.25 12.8 55 63 5.9 42.6 13.16 0.518
00:12 1026 30.3 855 25.25 12.8 55 63 6 42.7 13.19 0.519
00:13 1026 30.3 855 25.25 12.8 55 63 5.9 42.7 13.13 0.517
00:14 1026 30.3 855 25.25 12.8 55 63 5.9 42.7 13.18 0.519
00:15 1026 30.3 855 25.25 12.8 55 62 5.8 42.5 13.22 0.52
00:16 1026 30.3 855 25.25 12.8 55.1 63 5.9 42.6 13.25 0.522
00:17 1026 30.3 855 25.25 12.8 55.1 63 6 42.8 13.15 0.518
00:18 1026 30.3 855 25.25 12.7 54.8 63 5.9 42.7 13.05 0.514
00:19 1026 30.3 855 25.25 12.6 54.7 64 6 42.8 13.05 0.514
00:20 1026 30.3 855 25.25 12.6 54.6 63 5.8 42.5 12.97 0.511
00:21 1026 30.3 855 25.25 12.6 54.8 63 5.9 42.7 13.03 0.513
00:22 1026 30.3 855 25.25 12.6 54.7 64 5.9 42.7 13.02 0.513
00:23 1026 30.3 855 25.25 12.6 54.7 63 5.9 42.6 12.96 0.51
00:24 1026 30.3 855 25.25 12.6 54.7 64 6 42.8 12.96 0.51
00:25 1026 30.3 855 25.25 12.5 54.5 64 5.9 42.6 12.87 0.507
00:26 1026 30.3 855 25.25 12.5 54.5 64 5.9 42.7 12.84 0.506
00:27 1026 30.3 855 25.25 12.5 54.4 64 5.8 42.5 12.86 0.506
00:28 1026 30.3 855 25.25 12.5 54.5 64 5.8 42.5 12.88 0.507
00:29 1026 30.3 855 25.25 12.5 54.5 64 5.9 42.6 12.87 0.507
00:30 1026 30.3 855 25.25 12.5 54.5 64 6 42.7 12.84 0.506
00:31 1026 30.3 855 25.25 12.4 54.3 64 5.9 42.6 12.74 0.502
00:32 1026 30.3 855 25.25 12.3 54.2 65 5.9 42.6 12.66 0.498
00:33 1026 30.3 855 25.25 12.3 54.1 64 5.8 42.5 12.69 0.5
00:34 1026 30.3 855 25.25 12.4 54.3 64 5.9 42.5 12.78 0.503
00:35 1026 30.3 855 25.25 12.4 54.2 65 5.9 42.7 12.71 0.5
00:36 1026 30.3 855 25.25 12.3 54.1 65 5.9 42.7 12.61 0.496
00:37 1026 30.3 855 25.25 12.2 53.9 65 5.9 42.6 12.57 0.495
00:38 1026 30.3 855 25.25 12.2 53.9 65 5.8 42.5 12.51 0.493
00:39 1026 30.3 855 25.25 12.2 54 65 5.9 42.5 12.61 0.496
00:40 1026 30.3 855 25.25 12.3 54.2 64 5.9 42.6 12.71 0.5
00:41 1026 30.3 855 25.25 12.4 54.3 64 5.9 42.6 12.73 0.501
00:42 1026 30.3 855 25.25 12.3 54.2 65 5.9 42.6 12.7 0.5
00:43 1026 30.3 855 25.25 12.3 54.1 65 5.9 42.7 12.65 0.498
00:44 1026 30.3 855 25.25 12.2 54 65 5.9 42.6 12.59 0.496
00:45 1026 30.3 855 25.25 12.2 54 65 5.9 42.6 12.6 0.496
00:46 1026 30.3 855 25.25 12.2 54 65 5.9 42.7 12.57 0.495
00:47 1026 30.3 855 25.25 12.2 53.9 65 5.8 42.4 12.6 0.496
00:48 1026 30.3 855 25.25 12.3 54.1 65 5.9 42.6 12.71 0.5
00:49 1026 30.3 855 25.25 12.3 54.2 64 5.8 42.5 12.69 0.5
00:50 1026 30.3 855 25.25 12.3 54.2 65 6 42.8 12.66 0.498
00:51 1026 30.3 855 25.25 12.3 54.1 65 6 42.7 12.61 0.496
00:52 1026 30.3 855 25.25 12.3 54.1 65 6 42.8 12.6 0.496
00:53 1026 30.3 855 25.25 12.1 53.9 66 5.9 42.7 12.48 0.491
00:54 1026 30.3 855 25.25 12.1 53.7 66 5.9 42.6 12.45 0.49
00:55 1026 30.3 855 25.25 12.1 53.7 66 5.9 42.6 12.43 0.489
00:56 1026 30.3 855 25.25 12 53.7 66 5.9 42.7 12.38 0.487
00:57 1026 30.3 855 25.25 11.9 53.5 66 5.9 42.7 12.28 0.483
00:58 1026 30.3 855 25.25 11.9 53.4 66 5.9 42.5 12.26 0.483
00:59 1026 30.3 855 25.25 12 53.5 66 5.8 42.5 12.36 0.487
01:00 1026 30.3 855 25.25 12 53.6 66 5.9 42.6 12.36 0.487
01:01 1026 30.3 855 25.25 12 53.5 66 5.8 42.4 12.35 0.486
01:02 1026 30.3 855 25.25 12.1 53.7 66 5.9 42.6 12.46 0.491
01:03 1026 30.3 855 25.25 12.1 53.7 66 5.9 42.6 12.45 0.49
01:04 1026 30.3 855 25.25 12.1 53.8 66 5.9 42.7 12.46 0.491
01:05 1026 30.3 855 25.25 12 53.7 66 6 42.7 12.38 0.487
01:06 1026 30.3 855 25.25 11.9 53.4 67 6 42.7 12.25 0.482
01:07 1026 30.3 855 25.25 11.8 53.2 67 5.9 42.6 12.14 0.478
01:08 1026 30.3 855 25.25 11.7 53 67 5.9 42.6 12.09 0.476
01:09 1026 30.3 855 25.25 11.6 52.9 68 5.9 42.6 11.98 0.472
01:10 1026 30.3 855 25.25 11.6 52.9 68 5.8 42.5 11.98 0.472
01:11 1026 30.3 855 25.25 11.7 53 67 5.8 42.5 12.05 0.474
01:12 1026 30.3 855 25.25 11.7 53 68 5.9 42.6 12.05 0.474
01:13 1026 30.3 855 25.25 11.7 53 67 5.9 42.6 12.04 0.474
01:14 1026 30.3 855 25.25 11.6 52.9 68 6 42.7 11.96 0.471
01:15 1026 30.3 855 25.25 11.4 52.6 69 5.9 42.6 11.83 0.466
01:16 1026 30.3 855 25.25 11.3 52.4 69 5.8 42.5 11.71 0.461
01:17 1026 30.3 855 25.25 11.3 52.3 69 5.8 42.5 11.63 0.458
01:18 1026 30.3 855 25.25 11.2 52.2 69 5.8 42.4 11.64 0.458
01:19 1026 30.3 855 25.25 11.2 52.2 69 5.8 42.5 11.59 0.456
01:20 1026 30.3 855 25.25 11.2 52.1 69 5.8 42.4 11.58 0.456
01:21 1026 30.3 855 25.25 11.2 52.2 69 5.8 42.4 11.65 0.459
01:22 1026 30.3 855 25.25 11.3 52.3 69 5.8 42.5 11.65 0.459
01:23 1026 30.3 855 25.25 11.2 52.2 69 5.8 42.4 11.58 0.456
01:24 1026 30.3 855 25.25 11.2 52.2 69 5.8 42.5 11.59 0.456
01:25 1026 30.3 855 25.25 11.2 52.1 69 5.8 42.4 11.58 0.456
01:26 1026 30.3 855 25.25 11.2 52.1 69 5.8 42.4 11.59 0.456
01:27 1026 30.3 855 25.25 11.2 52.1 69 5.7 42.3 11.56 0.455
01:28 1026 30.3 855 25.25 11.2 52.1 69 5.8 42.4 11.59 0.456
01:29 1026 30.3 855 25.25 11.2 52.2 69 5.8 42.4 11.58 0.456
01:30 1026 30.3 855 25.25 11.2 52.1 69 5.8 42.5 11.58 0.456
01:31 1026 30.3 855 25.25 11.2 52.1 69 5.8 42.4 11.55 0.455
01:32 1026 30.3 855 25.25 11.2 52.2 69 5.8 42.4 11.62 0.457
01:33 1026 30.3 855 25.25 11.2 52.1 69 5.8 42.4 11.61 0.457
01:34 1026 30.3 855 25.25 11.2 52.1 69 5.8 42.5 11.58 0.456
01:35 1026 30.3 855 25.25 11.2 52.2 69 5.8 42.5 11.58 0.456
01:36 1026 30.3 855 25.25 11.2 52.1 69 5.8 42.4 11.59 0.456
01:37 1026 30.3 855 25.25 11.1 52 70 5.8 42.5 11.47 0.452
01:38 1026 30.3 855 25.25 11 51.9 70 5.8 42.5 11.4 0.449
01:39 1026 30.3 855 25.25 11 51.7 70 5.8 42.5 11.33 0.446
01:40 1026 30.3 855 25.25 10.9 51.6 71 5.8 42.4 11.31 0.445
01:41 1026 30.3 855 25.25 10.8 51.5 71 5.8 42.4 11.21 0.441
01:42 1026 30.3 855 25.25 10.8 51.4 71 5.8 42.4 11.23 0.442
01:43 1026 30.3 855 25.25 10.8 51.4 71 5.8 42.4 11.1 0.437
01:44 1026 30.3 855 25.25 10.5 50.9 72 5.7 42.3 10.92 0.43
01:45 1026 30.3 855 25.25 10.3 50.5 73 5.7 42.2 10.73 0.422
01:46 1026 30.3 855 25.25 10 50 74 5.6 42.1 10.51 0.414
01:47 1026 30.3 855 25.25 9.8 49.7 75 5.6 42.2 10.3 0.406
01:48 1026 30.3 855 25.25 9.7 49.4 76 5.6 42.2 10.14 0.399
01:49 1026 30.3 855 25.25 9.6 49.3 76 5.7 42.2 10.04 0.395
01:50 1026 30.3 855 25.25 9.5 49.2 77 5.7 42.2 10.01 0.394
01:51 1026 30.3 855 25.25 9.5 49.1 77 5.7 42.2 9.94 0.391
01:52 1026 30.3 855 25.25 9.5 49.1 77 5.7 42.3 9.93 0.391
01:53 1026 30.3 855 25.25 9.6 49.2 77 5.7 42.2 9.93 0.391
01:54 1026 30.3 855 25.25 9.6 49.3 76 5.6 42.1 10.01 0.394
01:55 1026 30.3 855 25.25 9.7 49.4 76 5.6 42.1 10.02 0.394
01:56 1026 30.3 855 25.25 9.7 49.4 76 5.6 42.1 10.01 0.394
01:57 1026 30.3 855 25.25 9.5 49.2 76 5.5 41.9 9.89 0.389
01:58 1026 30.3 855 25.25 9.4 48.9 76 5.3 41.6 9.8 0.386
01:59 1026 30.3 855 25.25 9.4 48.8 75 5.2 41.4 9.73 0.383
02:00 1026 30.3 855 25.25 9.3 48.8 75 5.2 41.4 9.65 0.38
02:01 1026 30.3 855 25.25 9.3 48.7 75 5.2 41.3 9.64 0.38
02:02 1026 30.3 855 25.25 9.1 48.5 75 5 41.1 9.58 0.377
02:03 1026 30.3 855 25.25 9 48.2 76 5.1 41.2 9.38 0.369
02:04 1026 30.3 855 25.25 8.9 48.1 77 5.1 41.2 9.33 0.367
02:05 1026 30.3 855 25.25 9 48.1 76 5.1 41.1 9.35 0.368
02:06 1026 30.3 855 25.25 8.8 47.9 77 5.1 41.1 9.28 0.365
02:07 1026 30.3 855 25.25 8.8 47.8 77 5 41 9.17 0.361
02:08 1026 30.3 855 25.25 8.7 47.7 76 4.8 40.6 9.1 0.358
02:09 1026 30.3 855 25.25 8.6 47.4 77 4.8 40.6 8.95 0.352
02:10 1026 30.3 855 25.25 8.5 47.3 78 4.9 40.9 8.92 0.351
02:11 1026 30.3 855 25.25 8.6 47.5 78 5 41 8.98 0.354
02:12 1026 30.3 855 25.25 8.8 47.8 77 5.1 41.1 9.15 0.36
02:13 1026 30.3 855 25.25 9 48.1 77 5.1 41.2 9.26 0.365
02:14 1026 30.3 855 25.25 8.9 48.1 77 5.1 41.1 9.29 0.366
02:15 1026 30.3 855 25.25 8.9 48.1 77 5.1 41.2 9.24 0.364
02:16 1026 30.3 855 25.25 8.9 47.9 77 5.1 41.1 9.21 0.363
02:17 1026 30.3 855 25.25 8.8 47.8 77 5 41.1 9.15 0.36
02:18 1026 30.3 855 25.25 8.7 47.7 78 5.1 41.1 9.09 0.358
02:19 1026 30.3 855 25.25 8.7 47.6 78 5 41 9.04 0.356
02:20 1026 30.3 855 25.25 8.7 47.6 76 4.7 40.5 9.02 0.355
02:21 1026 30.3 855 25.25 8.2 46.8 75 4.1 39.4 8.56 0.337
02:22 1026 30.3 855 25.25 7.6 45.7 76 3.7 38.7 7.96 0.313
02:23 1026 30.3 855 25.25 7.1 44.7 78 3.4 38.2 7.51 0.296
02:24 1026 30.3 855 25.25 6.7 44.1 79 3.3 38 7.14 0.281
02:25 1026 30.3 855 25.25 6.5 43.8 80 3.4 38.1 6.947 0.274
02:26 1026 30.3 855 25.25 6.4 43.6 80 3.3 37.9 6.834 0.269
02:27 1026 30.3 855 25.25 6.3 43.3 81 3.2 37.8 6.676 0.263
02:28 1026 30.3 855 25.25 6.1 42.9 82 3.2 37.7 6.506 0.256
02:29 1026 30.3 855 25.25 5.9 42.6 82 3.1 37.6 6.297 0.248
02:30 1026 30.3 855 25.25 5.8 42.4 83 3.1 37.5 6.212 0.245
02:31 1026 30.3 855 25.25 5.7 42.2 82 2.9 37.2 6.088 0.24
02:32 1026 30.3 855 25.25 5.7 42.2 81 2.7 36.9 6.065 0.239
02:33 1026 30.3 855 25.25 5.7 42.2 81 2.7 36.9 6.037 0.238
02:34 1026 30.3 855 25.25 5.5 42 82 2.7 36.8 5.935 0.234
02:35 1026 30.3 855 25.25 5.4 41.6 83 2.6 36.8 5.771 0.227
02:36 1026 30.3 855 25.25 5.2 41.3 83 2.5 36.6 5.613 0.221
02:37 1026 30.3 855 25.25 5 41 84 2.5 36.5 5.409 0.213
02:38 1026 30.3 855 25.25 4.8 40.6 85 2.4 36.3 5.251 0.207
02:39 1026 30.3 855 25.25 4.6 40.4 85 2.3 36.2 5.098 0.201
02:40 1026 30.3 855 25.25 4.6 40.2 86 2.3 36.2 4.958 0.195
02:41 1026 30.3 855 25.25 4.4 40 86 2.2 36 4.851 0.191
02:42 1026 30.3 855 25.25 4.3 39.8 86 2.2 36 4.783 0.188
02:43 1026 30.3 855 25.25 4.3 39.8 86 2.2 36 4.712 0.186
02:44 1026 30.3 855 25.25 4.3 39.7 86 2.2 35.9 4.673 0.184
02:45 1026 30.3 855 25.25 4.3 39.7 87 2.2 36 4.684 0.184
02:46 1026 30.3 855 25.25 4.4 39.9 86 2.3 36.2 4.804 0.189
02:47 1026 30.3 855 25.25 4.7 40.4 85 2.4 36.3 5.013 0.197
02:48 1026 30.3 855 25.25 4.8 40.7 84 2.4 36.3 5.16 0.203
02:49 1026 30.3 855 25.25 4.9 40.8 84 2.4 36.3 5.28 0.208
02:50 1026 30.3 855 25.25 5 41 84 2.5 36.4 5.332 0.21
02:51 1026 30.3 855 25.25 5 41.1 84 2.5 36.5 5.411 0.213
02:52 1026 30.3 855 25.25 5.1 41.2 83 2.5 36.5 5.457 0.215
02:53 1026 30.3 855 25.25 5 41.1 83 2.4 36.4 5.458 0.215
02:54 1026 30.3 855 25.25 5.1 41.1 84 2.6 36.6 5.446 0.214
02:55 1026 30.3 855 25.25 5 41 83 2.5 36.4 5.448 0.214
02:56 1026 30.3 855 25.25 5.1 41.2 83 2.5 36.5 5.465 0.215
02:57 1026 30.3 855 25.25 5.1 41.3 83 2.5 36.5 5.515 0.217
02:58 1026 30.3 855 25.25 5.2 41.4 82 2.5 36.4 5.601 0.221
02:59 1026 30.3 855 25.25 5.2 41.4 82 2.3 36.2 5.556 0.219
03:00 1026 30.3 855 25.25 5.2 41.3 82 2.3 36.2 5.562 0.219
03:01 1026 30.3 855 25.25 5.3 41.5 81 2.4 36.2 5.647 0.222
03:02 1026 30.3 855 25.25 5.5 41.8 81 2.4 36.3 5.778 0.227
03:03 1026 30.3 855 25.25 5.5 42 80 2.4 36.2 5.891 0.232
03:04 1026 30.3 855 25.25 5.7 42.3 79 2.4 36.3 6.016 0.237
03:05 1026 30.3 855 25.25 5.8 42.5 79 2.5 36.5 6.146 0.242
03:06 1026 30.3 855 25.25 5.8 42.5 80 2.6 36.8 6.152 0.242
03:07 1026 30.3 855 25.25 5.9 42.6 80 2.8 37 6.248 0.246
03:08 1026 30.3 855 25.25 6 42.7 80 2.9 37.1 6.271 0.247
03:09 1026 30.3 855 25.25 6 42.8 81 2.9 37.3 6.311 0.248
03:10 1026 30.3 855 25.25 6 42.8 81 2.9 37.3 6.339 0.25
03:11 1026 30.3 855 25.25 6.1 42.9 81 3 37.4 6.418 0.253
03:12 1026 30.3 855 25.25 6.1 43 80 3 37.3 6.441 0.254
03:13 1026 30.3 855 25.25 6.3 43.3 80 3 37.4 6.554 0.258
03:14 1026 30.3 855 25.25 6.4 43.5 79 3.1 37.5 6.673 0.263
03:15 1026 30.3 855 25.25 6.4 43.6 79 3.1 37.6 6.769 0.266
03:16 1026 30.3 855 25.25 6.5 43.7 79 3.1 37.7 6.837 0.269
03:17 1026 30.3 855 25.25 6.5 43.7 79 3.1 37.6 6.803 0.268
03:18 1026 30.3 855 25.25 6.5 43.6 79 3.1 37.6 6.798 0.268
03:19 1026 30.3 855 25.25 6.5 43.7 78 3 37.5 6.809 0.268
03:20 1026 30.3 855 25.25 6.5 43.7 79 3.1 37.5 6.815 0.268
03:21 1026 30.3 855 25.25 6.4 43.6 79 3.1 37.6 6.804 0.268
03:22 1026 30.3 855 25.25 6.5 43.6 80 3.3 37.9 6.787 0.267
03:23 1026 30.3 855 25.25 6.5 43.8 81 3.4 38.2 6.849 0.27
03:24 1026 30.3 855 25.25 6.7 44 81 3.6 38.5 6.951 0.274
03:25 1026 30.3 855 25.25 6.8 44.2 81 3.8 38.8 7.06 0.278
03:26 1026 30.3 855 25.25 7 44.5 80 3.8 38.9 7.23 0.285
03:27 1026 30.3 855 25.25 7.1 44.8 80 3.9 39 7.36 0.29
03:28 1026 30.3 855 25.25 7.2 45 79 3.9 39 7.47 0.294
03:29 1026 30.3 855 25.25 7.2 45 79 3.9 39.1 7.54 0.297
03:30 1026 30.3 855 25.25 7.3 45.1 80 4 39.2 7.54 0.297
03:31 1026 30.3 855 25.25 7.2 45 80 4 39.3 7.55 0.297
03:32 1026 30.3 855 25.25 7.2 45 81 4.1 39.4 7.51 0.296
03:33 1026 30.3 855 25.25 7.2 45 81 4.1 39.4 7.56 0.298
03:34 1026 30.3 855 25.25 7.3 45.1 80 4.1 39.4 7.57 0.298
03:35 1026 30.3 855 25.25 7.2 45 81 4.2 39.5 7.56 0.298
03:36 1026 30.3 855 25.25 7.3 45.2 80 4.2 39.5 7.62 0.3
03:37 1026 30.3 855 25.25 7.4 45.3 80 4.2 39.5 7.67 0.302
03:38 1026 30.3 855 25.25 7.4 45.3 80 4.1 39.5 7.71 0.304
03:39 1026 30.3 855 25.25 7.4 45.4 80 4.2 39.5 7.74 0.305
03:40 1026 30.3 855 25.25 7.4 45.3 80 4.1 39.5 7.71 0.304
03:41 1026 30.3 855 25.25 7.4 45.3 80 4.1 39.5 7.7 0.303
03:42 1026 30.3 855 25.25 7.3 45.2 80 4.2 39.5 7.68 0.302
03:43 1026 30.3 855 25.25 7.3 45.1 80 4.2 39.5 7.64 0.301
03:44 1026 30.3 855 25.25 7.3 45.1 80 4.2 39.5 7.65 0.301
03:45 1026 30.3 855 25.25 7.3 45.2 80 4.2 39.5 7.65 0.301
03:46 1026 30.3 855 25.25 7.3 45.1 81 4.1 39.4 7.62 0.3
03:47 1026 30.3 855 25.25 7.3 45.1 81 4.2 39.5 7.64 0.301
03:48 1026 30.3 855 25.25 7.3 45.2 80 4.2 39.5 7.66 0.302
03:49 1026 30.3 855 25.25 7.3 45.1 80 4.1 39.4 7.62 0.3
03:50 1026 30.3 855 25.25 7.2 45 80 4 39.2 7.59 0.299
03:51 1026 30.3 855 25.25 7.2 45 79 3.9 38.9 7.58 0.298
03:52 1026 30.3 855 25.25 7.3 45.1 79 3.8 38.9 7.58 0.298
03:53 1026 30.3 855 25.25 7.3 45.1 79 3.9 39 7.62 0.3
03:54 1026 30.3 855 25.25 7.3 45.1 79 3.9 38.9 7.62 0.3
03:55 1026 30.3 855 25.25 7.3 45.1 79 3.9 38.9 7.6 0.299
03:56 1026 30.3 855 25.25 7.3 45.1 79 3.9 39 7.58 0.298
03:57 1026 30.3 855 25.25 7.3 45.1 79 3.9 39 7.6 0.299
03:58 1026 30.3 855 25.25 7.3 45.1 79 3.8 38.9 7.61 0.3
03:59 1026 30.3 855 25.25 7.3 45.1 79 3.8 38.9 7.57 0.298
04:00 1026 30.3 855 25.25 7.2 45 79 3.8 38.9 7.52 0.296
04:01 1026 30.3 855 25.25 7.1 44.9 79 3.8 38.9 7.51 0.296
04:02 1026 30.3 855 25.25 7.2 44.9 79 3.8 38.9 7.52 0.296
04:03 1026 30.3 855 25.25 7.2 45 79 3.8 38.9 7.54 0.297
04:04 1026 30.3 855 25.25 7.2 45 79 3.9 38.9 7.58 0.298
04:05 1026 30.3 855 25.25 7.2 45 79 3.9 39 7.58 0.298
04:06 1026 30.3 855 25.25 7.3 45.1 80 4 39.2 7.61 0.3
04:07 1026 30.3 855 25.25 7.3 45.1 80 4 39.1 7.61 0.3
04:08 1026 30.3 855 25.25 7.2 44.9 80 4 39.1 7.58 0.298
04:09 1026 30.3 855 25.25 7.2 44.9 80 4 39.2 7.55 0.297
04:10 1026 30.3 855 25.25 7.2 44.9 80 4 39.3 7.57 0.298
04:11 1026 30.3 855 25.25 7.2 44.9 81 4.1 39.4 7.55 0.297
04:12 1026 30.3 855 25.25 7.3 45.1 80 4.1 39.5 7.65 0.301
04:13 1026 30.3 855 25.25 7.4 45.3 80 4.2 39.5 7.69 0.303
04:14 1026 30.3 855 25.25 7.4 45.3 80 4.2 39.5 7.74 0.305
04:15 1026 30.3 855 25.25 7.4 45.3 80 4.2 39.6 7.72 0.304
04:16 1026 30.3 855 25.25 7.4 45.4 80 4.2 39.5 7.77 0.306
04:17 1026 30.3 855 25.25 7.4 45.4 80 4.2 39.6 7.77 0.306
04:18 1026 30.3 855 25.25 7.5 45.4 80 4.2 39.6 7.79 0.307
04:19 1026 30.3 855 25.25 7.5 45.6 80 4.3 39.7 7.84 0.309
04:20 1025 30.27 855 25.25 7.6 45.7 80 4.3 39.8 7.89 0.311
04:21 1025 30.27 855 25.25 7.6 45.6 80 4.4 39.8 7.89 0.311
04:22 1025 30.27 855 25.25 7.6 45.7 80 4.3 39.8 7.98 0.314
04:23 1025 30.27 855 25.25 7.8 46 79 4.4 39.9 8.07 0.318
04:24 1025 30.27 855 25.25 7.9 46.2 79 4.4 40 8.18 0.322
04:25 1025 30.27 855 25.25 8 46.3 78 4.4 40 8.27 0.326
04:26 1025 30.27 855 25.25 8 46.4 78 4.4 40 8.33 0.328
04:27 1025 30.27 855 25.25 8 46.3 78 4.4 39.9 8.28 0.326
04:28 1025 30.27 855 25.25 7.9 46.3 78 4.4 39.9 8.29 0.326
04:29 1025 30.27 855 25.25 8 46.4 78 4.4 39.9 8.32 0.328
04:30 1025 30.27 855 25.25 8 46.4 78 4.4 39.9 8.33 0.328
04:31 1025 30.27 855 25.25 8 46.3 78 4.4 39.9 8.32 0.328
04:32 1025 30.27 855 25.25 7.9 46.3 78 4.4 39.9 8.32 0.328
04:33 1025 30.27 855 25.25 7.9 46.2 79 4.4 39.9 8.26 0.325
04:34 1025 30.27 855 25.25 7.8 46.1 79 4.4 39.8 8.23 0.324
04:35 1025 30.27 855 25.25 7.9 46.1 79 4.4 39.9 8.2 0.323
04:36 1025 30.27 855 25.25 7.9 46.2 79 4.4 40 8.21 0.323
04:37 1025 30.27 855 25.25 7.9 46.3 79 4.4 40 8.25 0.325
04:38 1025 30.27 855 25.25 8 46.3 79 4.5 40 8.27 0.326
04:39 1025 30.27 855 25.25 8 46.4 78 4.5 40 8.33 0.328
04:40 1025 30.27 854 25.22 8 46.4 79 4.5 40.1 8.38 0.33
04:41 1025 30.27 854 25.22 8.1 46.5 78 4.5 40.2 8.36 0.329
04:42 1025 30.27 854 25.22 8 46.4 78 4.5 40.1 8.36 0.329
04:43 1025 30.27 854 25.22 8 46.4 78 4.4 40 8.36 0.329
04:44 1025 30.27 854 25.22 8.1 46.7 78 4.5 40 8.46 0.333
04:45 1025 30.27 854 25.22 8.2 46.8 77 4.5 40.1 8.53 0.336
04:46 1025 30.27 854 25.22 8.3 46.9 77 4.5 40.2 8.62 0.339
04:47 1025 30.27 854 25.22 8.3 47 77 4.5 40.2 8.7 0.343
04:48 1025 30.27 854 25.22 8.4 47.2 77 4.6 40.3 8.77 0.345
04:49 1025 30.27 854 25.22 8.6 47.4 76 4.6 40.3 8.88 0.35
04:50 1025 30.27 854 25.22 8.7 47.7 75 4.6 40.3 8.98 0.354
04:51 1025 30.27 854 25.22 8.9 47.9 75 4.6 40.4 9.11 0.359
04:52 1025 30.27 854 25.22 8.9 48 75 4.6 40.4 9.19 0.362
04:53 1025 30.27 854 25.22 8.9 48 75 4.7 40.4 9.16 0.361
04:54 1025 30.27 854 25.22 8.7 47.6 75 4.5 40.2 8.98 0.354
04:55 1025 30.27 854 25.22 8.4 47.1 76 4.4 40 8.73 0.344
04:56 1025 30.27 854 25.22 8.2 46.7 77 4.4 39.9 8.51 0.335
04:57 1025 30.27 854 25.22 8 46.4 77 4.3 39.7 8.38 0.33
04:58 1025 30.27 854 25.22 7.8 46.1 78 4.2 39.5 8.19 0.322
04:59 1025 30.27 854 25.22 7.7 45.8 78 4.1 39.4 8.07 0.318
05:00 1025 30.27 854 25.22 7.6 45.7 79 4.2 39.5 7.98 0.314
05:01 1025 30.27 854 25.22 7.6 45.7 78 4.1 39.3 7.96 0.313
05:02 1025 30.27 854 25.22 7.5 45.5 79 4 39.2 7.86 0.309
05:03 1025 30.27 855 25.25 7.4 45.3 79 4 39.2 7.75 0.305
05:04 1025 30.27 855 25.25 7.2 45 79 3.9 39 7.66 0.302
05:05 1025 30.27 855 25.25 7 44.7 80 3.8 38.8 7.44 0.293
05:06 1025 30.27 855 25.25 6.9 44.4 80 3.8 38.8 7.27 0.286
05:07 1025 30.27 855 25.25 6.7 44.1 81 3.7 38.7 7.14 0.281
05:08 1025 30.27 855 25.25 6.6 43.8 81 3.6 38.5 7.03 0.277
05:09 1025 30.27 855 25.25 6.6 43.8 81 3.5 38.4 6.944 0.273
05:10 1025 30.27 855 25.25 6.5 43.8 81 3.5 38.2 6.944 0.273
05:11 1025 30.27 855 25.25 6.5 43.7 81 3.5 38.2 6.848 0.27
05:12 1025 30.27 855 25.25 6.4 43.5 80 3.2 37.8 6.803 0.268
05:13 1025 30.27 855 25.25 6.4 43.5 80 3.2 37.7 6.735 0.265
05:14 1025 30.27 855 25.25 6.3 43.3 79 3 37.4 6.679 0.263
05:15 1025 30.27 855 25.25 6.3 43.3 79 2.9 37.3 6.645 0.262
05:16 1025 30.27 855 25.25 6.2 43.2 79 2.9 37.3 6.588 0.259
05:17 1025 30.27 855 25.25 6.2 43.1 80 2.9 37.3 6.571 0.259
05:18 1025 30.27 855 25.25 6.2 43.1 80 2.9 37.2 6.577 0.259
05:19 1025 30.27 855 25.25 6.1 43 80 2.9 37.2 6.492 0.256
05:20 1025 30.27 855 25.25 6 42.8 80 2.8 37.1 6.424 0.253
05:21 1025 30.27 855 25.25 6 42.8 80 2.8 37 6.413 0.252
05:22 1025 30.27 855 25.25 6 42.8 79 2.7 36.9 6.436 0.253
05:23 1025 30.27 855 25.25 6.1 43 79 2.7 36.9 6.526 0.257
05:24 1025 30.27 855 25.25 6.3 43.3 78 2.8 37 6.622 0.261
05:25 1025 30.27 855 25.25 6.4 43.6 77 2.7 36.9 6.792 0.267
05:26 1025 30.27 855 25.25 6.5 43.7 77 2.7 36.8 6.86 0.27
05:27 1025 30.27 855 25.25 6.5 43.7 77 2.7 36.8 6.849 0.27
05:28 1025 30.27 855 25.25 6.5 43.7 76 2.7 36.8 6.9 0.272
05:29 1025 30.27 855 25.25 6.5 43.7 77 2.7 36.9 6.871 0.271
05:30 1025 30.27 855 25.25 6.5 43.7 76 2.7 36.8 6.877 0.271
05:31 1025 30.27 855 25.25 6.4 43.5 77 2.6 36.7 6.764 0.266
05:32 1025 30.27 855 25.25 6.2 43.1 77 2.5 36.5 6.566 0.259
05:33 1026 30.3 855 25.25 5.9 42.5 78 2.3 36.1 6.266 0.247
05:34 1025 30.27 855 25.25 5.5 42 79 2.2 36 5.966 0.235
05:35 1026 30.3 855 25.25 5.4 41.7 80 2.2 36 5.779 0.228
05:36 1025 30.27 855 25.25 5.2 41.4 80 2.2 35.9 5.644 0.222
05:37 1025 30.27 855 25.25 5.1 41.2 82 2.2 35.9 5.508 0.217
05:38 1025 30.27 855 25.25 5 41 82 2.2 36 5.417 0.213
05:39 1025 30.27 855 25.25 4.9 40.9 82 2.2 35.9 5.338 0.21
05:40 1025 30.27 855 25.25 4.9 40.8 82 2.1 35.8 5.248 0.207
05:41 1026 30.3 855 25.25 4.8 40.6 82 2 35.6 5.163 0.203
05:42 1026 30.3 855 25.25 4.6 40.3 84 2.1 35.8 5.01 0.197
05:43 1026 30.3 855 25.25 4.6 40.3 84 2.2 35.9 4.959 0.195
05:44 1026 30.3 855 25.25 4.6 40.2 84 2 35.7 4.959 0.195
05:45 1026 30.3 855 25.25 4.6 40.2 83 2 35.6 4.925 0.194
05:46 1026 30.3 855 25.25 4.4 40 85 2.1 35.8 4.806 0.189
05:47 1026 30.3 855 25.25 4.4 39.9 86 2.2 36 4.806 0.189
05:48 1026 30.3 855 25.25 4.5 40.1 85 2.2 36 4.897 0.193
05:49 1026 30.3 855 25.25 4.6 40.3 85 2.4 36.3 4.925 0.194
05:50 1026 30.3 855 25.25 4.7 40.5 85 2.4 36.3 4.976 0.196
05:51 1026 30.3 855 25.25 4.8 40.6 86 2.5 36.6 5.044 0.199
05:52 1026 30.3 855 25.25 4.9 40.8 85 2.6 36.6 5.163 0.203
05:53 1026 30.3 855 25.25 4.9 40.8 83 2.3 36.1 5.135 0.202
05:54 1026 30.3 855 25.25 4.8 40.7 84 2.3 36.1 5.101 0.201
05:55 1026 30.3 855 25.25 4.8 40.7 85 2.5 36.5 5.106 0.201
05:56 1026 30.3 855 25.25 4.9 40.8 85 2.5 36.6 5.163 0.203
05:57 1026 30.3 855 25.25 5 41 85 2.6 36.7 5.225 0.206
05:58 1026 30.3 855 25.25 5.1 41.3 85 2.9 37.2 5.31 0.209
05:59 1026 30.3 855 25.25 5.2 41.4 84 2.8 37.1 5.451 0.215
06:00 1026 30.3 855 25.25 5.3 41.6 84 2.8 37 5.468 0.215
06:01 1026 30.3 855 25.25 5.3 41.6 86 3.1 37.6 5.599 0.22
06:02 1026 30.3 855 25.25 5.5 41.9 85 3.3 37.9 5.797 0.228
06:03 1026 30.3 855 25.25 5.8 42.4 85 3.4 38.2 6.034 0.238
06:04 1026 30.3 855 25.25 5.9 42.7 84 3.4 38.2 6.193 0.244
06:05 1026 30.3 855 25.25 6.2 43.1 83 3.5 38.3 6.391 0.252
06:06 1026 30.3 855 25.25 6.4 43.4 82 3.6 38.4 6.56 0.258
06:07 1026 30.3 855 25.25 6.6 43.9 82 3.7 38.7 6.673 0.263
06:08 1026 30.3 855 25.25 6.7 44 81 3.6 38.5 6.854 0.27
06:09 1026 30.3 855 25.25 6.7 44.1 79 3.4 38.1 6.832 0.269
06:10 1026 30.3 855 25.25 6.6 43.9 80 3.4 38.1 6.741 0.265
06:11 1026 30.3 855 25.25 6.5 43.7 80 3.3 37.9 6.623 0.261
06:12 1026 30.3 855 25.25 6.1 42.9 75 2 35.5 6.21 0.244
06:13 1026 30.3 855 25.25 5.3 41.5 77 1.5 34.8 5.468 0.215
06:14 1026 30.3 855 25.25 4.6 40.2 80 1.4 34.5 4.897 0.193
06:15 1026 30.3 855 25.25 4.1 39.4 82 1.4 34.4 4.484 0.177
06:16 1026 30.3 855 25.25 3.8 38.9 84 1.3 34.4 4.156 0.164
06:17 1026 30.3 855 25.25 3.6 38.5 84 1.2 34.2 4.02 0.158
06:18 1026 30.3 855 25.25 3.4 38.2 85 1.1 34 3.816 0.15
06:19 1026 30.3 855 25.25 3.3 38 86 1.1 34.1 3.658 0.144
06:20 1026 30.3 855 25.25 3.2 37.8 86 1.1 34 3.584 0.141
06:21 1026 30.3 855 25.25 3.1 37.6 87 1.2 34.1 3.511 0.138
06:22 1026 30.3 855 25.25 3.1 37.6 87 1.2 34.1 3.545 0.14
06:23 1026 30.3 855 25.25 3.1 37.6 87 1.1 33.9 3.505 0.138
06:24 1026 30.3 855 25.25 3 37.4 87 1 33.9 3.409 0.134
06:25 1026 30.3 855 25.25 3 37.3 87 1 33.8 3.347 0.132
06:26 1026 30.3 855 25.25 2.9 37.2 87 0.9 33.7 3.279 0.129
06:27 1026 30.3 855 25.25 2.8 37.1 88 1 33.7 3.228 0.127
06:28 1026 30.3 855 25.25 2.9 37.2 88 1.1 34 3.313 0.13
06:29 1026 30.3 855 25.25 3.1 37.5 87 1.2 34.1 3.461 0.136
06:30 1026 30.3 855 25.25 3.3 37.9 88 1.4 34.6 3.603 0.142
06:31 1026 30.3 855 25.25 3.7 38.6 85 1.4 34.5 3.897 0.153
06:32 1026 30.3 855 25.25 3.9 39 84 1.4 34.5 4.146 0.163
06:33 1026 30.3 855 25.25 4 39.2 83 1.3 34.4 4.282 0.169
06:34 1026 30.3 855 25.25 4 39.2 81 1.1 34 4.315 0.17
06:35 1026 30.3 855 25.25 3.8 38.8 81 0.9 33.6 4.119 0.162
06:36 1026 30.3 855 25.25 3.5 38.2 82 0.7 33.3 3.768 0.148
06:37 1026 30.3 855 25.25 3.1 37.6 84 0.7 33.2 3.525 0.139
06:38 1026 30.3 855 25.25 2.9 37.2 85 0.6 33 3.243 0.128
06:39 1026 30.3 855 25.25 2.6 36.6 85 0.4 32.7 2.96 0.117
06:40 1026 30.3 855 25.25 2.4 36.3 88 0.6 33.1 2.762 0.109
06:41 1026 30.3 855 25.25 2.3 36.1 88 0.5 33 2.706 0.107
06:42 1026 30.3 855 25.25 2.1 35.9 88 0.4 32.7 2.576 0.101
06:43 1026 30.3 855 25.25 2.1 35.7 90 0.6 33.1 2.429 0.096
06:44 1026 30.3 855 25.25 2.2 35.9 90 0.7 33.3 2.548 0.1
06:45 1026 30.3 855 25.25 2.1 35.8 89 0.5 32.9 2.492 0.098
06:46 1026 30.3 855 25.25 2.1 35.7 90 0.6 33.1 2.418 0.095
06:47 1026 30.3 855 25.25 2.1 35.7 90 0.6 33.1 2.436 0.096
06:48 1026 30.3 855 25.25 2.1 35.7 90 0.6 33 2.43 0.096
06:49 1026 30.3 855 25.25 2 35.6 90 0.6 33 2.351 0.093
06:50 1026 30.3 855 25.25 1.9 35.5 90 0.5 32.8 2.329 0.092
06:51 1026 30.3 855 25.25 1.9 35.4 90 0.4 32.7 2.266 0.089
06:52 1026 30.3 855 25.25 1.8 35.2 90 0.4 32.7 2.193 0.086
06:53 1026 30.3 855 25.25 1.8 35.2 92 0.6 33 2.172 0.086
06:54 1026 30.3 855 25.25 1.9 35.5 91 0.7 33.2 2.268 0.089
06:55 1026 30.3 855 25.25 1.9 35.5 91 0.6 33 2.32 0.091
06:56 1026 30.3 855 25.25 2 35.6 92 0.8 33.4 2.332 0.092
06:57 1026 30.3 855 25.25 2.1 35.7 90 0.7 33.2 2.377 0.094
06:58 1026 30.3 855 25.25 2 35.6 90 0.5 33 2.315 0.091
06:59 1026 30.3 855 25.25 2 35.6 92 0.9 33.5 2.327 0.092
07:00 1026 30.3 855 25.25 2.1 35.9 92 0.9 33.7 2.446 0.096
07:01 1026 30.3 855 25.25 2.2 36 90 0.8 33.4 2.543 0.1
07:02 1026 30.3 855 25.25 2.1 35.8 90 0.7 33.2 2.469 0.097
07:03 1026 30.3 855 25.25 2.1 35.8 92 0.9 33.6 2.447 0.096
07:04 1026 30.3 855 25.25 2.3 36.1 93 1.2 34.2 2.589 0.102
07:05 1026 30.3 855 25.25 2.5 36.4 91 1.2 34.1 2.759 0.109
07:06 1026 30.3 855 25.25 2.5 36.6 91 1.2 34.2 2.906 0.114
07:07 1026 30.3 855 25.25 2.7 36.9 91 1.4 34.5 2.997 0.118
07:08 1026 30.3 855 25.25 2.8 37.1 91 1.5 34.7 3.099 0.122
07:09 1026 30.3 855 25.25 2.9 37.2 89 1.2 34.2 3.235 0.127
07:10 1026 30.3 855 25.25 2.9 37.1 89 1.2 34.2 3.179 0.125
07:11 1026 30.3 855 25.25 2.8 37 87 0.9 33.5 3.065 0.121
07:12 1026 30.3 855 25.25 2.5 36.6 87 0.6 33.1 2.867 0.113
07:13 1026 30.3 855 25.25 2.3 36.1 88 0.5 32.9 2.658 0.105
07:14 1026 30.3 855 25.25 2 35.6 87 0.1 32.2 2.387 0.094
07:15 1026 30.3 855 25.25 1.7 35.1 88 -0.1 31.8 2.109 0.083
07:16 1026 30.3 855 25.25 1.4 34.5 89 -0.2 31.6 1.917 0.075
07:17 1026 30.3 855 25.25 1.2 34.2 91 -0.1 31.8 1.691 0.067
07:18 1026 30.3 855 25.25 1.1 34 92 -0.1 31.9 1.606 0.063
07:19 1026 30.3 855 25.25 1.2 34.1 95 0.4 32.8 1.68 0.066
07:20 1026 30.3 855 25.25 1.3 34.4 94 0.4 32.8 1.776 0.07
07:21 1026 30.3 855 25.25 1.4 34.5 93 0.4 32.8 1.782 0.07
07:22 1026 30.3 855 25.25 1.4 34.6 93 0.5 32.9 1.822 0.072
07:23 1026 30.3 855 25.25 1.4 34.6 93 0.4 32.7 1.822 0.072
07:24 1026 30.3 855 25.25 1.4 34.5 93 0.4 32.7 1.81 0.071
07:25 1026 30.3 855 25.25 1.4 34.5 93 0.4 32.7 1.782 0.07
07:26 1026 30.3 855 25.25 1.4 34.6 93 0.4 32.7 1.765 0.069
07:27 1026 30.3 855 25.25 1.4 34.5 93 0.3 32.6 1.742 0.069
07:28 1026 30.3 855 25.25 1.4 34.5 93 0.4 32.7 1.771 0.07
07:29 1026 30.3 855 25.25 1.4 34.5 93 0.4 32.7 1.748 0.069
07:30 1026 30.3 855 25.25 1.4 34.5 92 0.3 32.5 1.697 0.067
07:31 1026 30.3 855 25.25 1.3 34.3 93 0.2 32.4 1.579 0.062
07:32 1026 30.3 855 25.25 1.3 34.3 94 0.4 32.8 1.573 0.062
07:33 1026 30.3 855 25.25 1.3 34.3 94 0.4 32.7 1.669 0.066
07:34 1026 30.3 855 25.25 1.3 34.3 94 0.3 32.6 1.641 0.065
07:35 1026 30.3 855 25.25 1.3 34.3 93 0.3 32.6 1.601 0.063
07:36 1026 30.3 855 25.25 1.2 34.1 94 0.3 32.5 1.55 0.061
07:37 1026 30.3 855 25.25 1.2 34.2 94 0.4 32.7 1.562 0.061
07:38 1026 30.3 855 25.25 1.3 34.3 94 0.4 32.7 1.601 0.063
07:39 1026 30.3 855 25.25 1.3 34.3 94 0.4 32.7 1.584 0.062
07:40 1026 30.3 855 25.25 1.3 34.3 94 0.4 32.8 1.669 0.066
07:41 1026 30.3 855 25.25 1.3 34.4 94 0.5 32.9 1.681 0.066
07:42 1026 30.3 855 25.25 1.4 34.5 94 0.5 32.9 1.698 0.067
07:43 1026 30.3 855 25.25 1.4 34.6 95 0.7 33.2 1.799 0.071
07:44 1026 30.3 855 25.25 1.7 35 95 1 33.8 2.077 0.082
07:45 1026 30.3 855 25.25 1.9 35.5 94 1.1 33.9 2.247 0.088
07:46 1026 30.3 855 25.25 2 35.7 92 0.9 33.7 2.326 0.092
07:47 1026 30.3 855 25.25 2.1 35.7 92 0.9 33.6 2.331 0.092
07:48 1026 30.3 855 25.25 2 35.7 92 0.9 33.6 2.332 0.092
07:49 1026 30.3 855 25.25 2.1 35.8 93 1 33.9 2.382 0.094
07:50 1026 30.3 855 25.25 2.2 36 93 1.2 34.1 2.496 0.098
07:51 1026 30.3 855 25.25 2.4 36.3 93 1.3 34.3 2.603 0.102
07:52 1026 30.3 855 25.25 2.5 36.5 92 1.3 34.4 2.733 0.108
07:53 1026 30.3 855 25.25 2.5 36.5 92 1.3 34.3 2.813 0.111
07:54 1026 30.3 855 25.25 2.5 36.6 91 1.2 34.2 2.904 0.114
07:55 1026 30.3 855 25.25 2.6 36.6 91 1.3 34.3 2.916 0.115
07:56 1026 30.3 855 25.25 2.6 36.6 91 1.3 34.4 2.95 0.116
07:57 1026 30.3 855 25.25 2.6 36.7 92 1.4 34.5 3.002 0.118
07:58 1026 30.3 855 25.25 2.7 36.8 92 1.4 34.6 3.013 0.119
07:59 1026 30.3 855 25.25 2.8 37 92 1.6 34.9 3.064 0.121
08:00 1026 30.3 855 25.25 2.9 37.1 91 1.6 34.9 3.161 0.124
08:01 1026 30.3 855 25.25 2.9 37.2 91 1.6 34.9 3.235 0.127
08:02 1026 30.3 855 25.25 3 37.4 91 1.6 34.9 3.269 0.129
08:03 1026 30.3 855 25.25 3 37.5 91 1.7 35 3.398 0.134
08:04 1026 30.3 855 25.25 3.1 37.6 91 1.8 35.2 3.415 0.134
08:05 1026 30.3 855 25.25 3.2 37.8 91 1.9 35.4 3.585 0.141
08:06 1026 30.3 855 25.25 3.3 38 91 1.9 35.5 3.654 0.144
08:07 1026 30.3 855 25.25 3.4 38.2 91 2 35.7 3.767 0.148
08:08 1026 30.3 855 25.25 3.5 38.4 90 2.1 35.8 3.875 0.153
08:09 1026 30.3 855 25.25 3.7 38.6 90 2.2 35.9 4.021 0.158
08:10 1026 30.3 855 25.25 3.9 38.9 89 2.3 36.1 4.123 0.162
08:11 1026 30.3 855 25.25 4 39.2 89 2.3 36.1 4.259 0.168
08:12 1026 30.3 855 25.25 4.2 39.5 88 2.3 36.2 4.413 0.174
08:13 1026 30.3 855 25.25 4.3 39.8 87 2.4 36.3 4.531 0.178
08:14 1026 30.3 855 25.25 4.5 40.2 87 2.6 36.7 4.667 0.184
08:15 1025 30.27 855 25.25 4.7 40.4 87 2.7 36.9 4.876 0.192
08:16 1025 30.27 855 25.25 4.8 40.6 87 2.8 37 5.063 0.199
08:17 1025 30.27 855 25.25 5 41 86 2.9 37.2 5.227 0.206
08:18 1025 30.27 855 25.25 5.1 41.2 86 2.9 37.2 5.396 0.212
08:19 1025 30.27 855 25.25 5.3 41.5 84 2.8 37 5.543 0.218
08:20 1026 30.3 855 25.25 5.4 41.8 84 2.9 37.3 5.684 0.224
08:21 1026 30.3 855 25.25 5.6 42 84 3 37.4 5.848 0.23
08:22 1026 30.3 855 25.25 5.7 42.3 81 2.8 37 6.012 0.237
08:23 1026 30.3 855 25.25 5.9 42.6 82 3.1 37.5 6.182 0.243
08:24 1026 30.3 855 25.25 6 42.8 81 3.1 37.5 6.317 0.249
08:25 1026 30.3 855 25.25 6.2 43.1 80 3.1 37.5 6.431 0.253
08:26 1026 30.3 855 25.25 6.3 43.4 81 3.2 37.8 6.493 0.256
08:27 1026 30.3 855 25.25 6.4 43.6 81 3.4 38.1 6.651 0.262
08:28 1026 30.3 855 25.25 6.6 43.8 82 3.7 38.6 6.815 0.268
08:29 1026 30.3 855 25.25 6.6 43.9 81 3.5 38.4 6.855 0.27
08:30 1026 30.3 855 25.25 6.7 44.1 81 3.7 38.6 6.928 0.273
08:31 1026 30.3 855 25.25 6.8 44.3 82 4 39.2 7.06 0.278
08:32 1026 30.3 855 25.25 7 44.5 82 4 39.2 7.23 0.285
08:33 1026 30.3 855 25.25 7.1 44.8 81 4.1 39.4 7.38 0.291
08:34 1026 30.3 855 25.25 7.2 45 79 3.8 38.9 7.54 0.297
08:35 1026 30.3 855 25.25 7.4 45.2 80 4.1 39.4 7.61 0.3
08:36 1026 30.3 855 25.25 7.5 45.5 79 4.2 39.5 7.79 0.307
08:37 1026 30.3 855 25.25 7.7 45.8 78 4.1 39.3 7.97 0.314
08:38 1026 30.3 855 25.25 7.8 46 77 4.1 39.3 8.08 0.318
08:39 1026 30.3 855 25.25 7.9 46.2 77 4.2 39.6 8.09 0.319
08:40 1026 30.3 855 25.25 8 46.4 77 4.3 39.7 8.18 0.322
08:41 1026 30.3 855 25.25 8.1 46.5 76 4 39.3 8.25 0.325
08:42 1026 30.3 855 25.25 8.2 46.7 76 4.2 39.5 8.36 0.329
08:43 1026 30.3 855 25.25 8.3 46.9 77 4.5 40.1 8.49 0.334
08:44 1026 30.3 855 25.25 8.4 47.1 77 4.5 40.2 8.63 0.34
08:45 1026 30.3 855 25.25 8.6 47.4 75 4.4 39.9 8.79 0.346
08:46 1026 30.3 855 25.25 8.8 47.8 77 5 41 8.98 0.354
08:47 1026 30.3 855 25.25 9 48.2 75 4.9 40.8 9.19 0.362
08:48 1026 30.3 855 25.25 9.2 48.5 75 5.1 41.1 9.4 0.37
08:49 1026 30.3 855 25.25 9.4 48.8 73 4.8 40.7 9.54 0.376
08:50 1026 30.3 855 25.25 9.5 49.2 73 5 41 9.7 0.382
08:51 1026 30.3 855 25.25 9.7 49.4 70 4.4 39.9 9.85 0.388
08:52 1026 30.3 855 25.25 9.8 49.6 68 4.2 39.5 9.95 0.392
08:53 1026 30.3 855 25.25 9.9 49.9 67 4 39.3 10.08 0.397
08:54 1026 30.3 855 25.25 10 50 68 4.4 39.9 10.15 0.4
08:55 1026 30.3 855 25.25 10.1 50.2 69 4.7 40.5 10.33 0.407
08:56 1026 30.3 855 25.25 10.2 50.4 68 4.6 40.4 10.44 0.411
08:57 1026 30.3 855 25.25 10.3 50.6 69 5 41 10.53 0.415
08:58 1026 30.3 855 25.25 10.4 50.8 69 4.9 40.9 10.59 0.417
08:59 1026 30.3 855 25.25 10.5 50.9 68 5 40.9 10.68 0.42
09:00 1026 30.3 855 25.25 10.6 51.1 69 5.1 41.2 10.74 0.423
09:01 1026 30.3 855 25.25 10.6 51.1 69 5.2 41.3 10.87 0.428
09:02 1026 30.3 855 25.25 10.7 51.3 69 5.3 41.5 10.94 0.431
09:03 1026 30.3 855 25.25 10.8 51.4 68 5.2 41.3 10.98 0.432
09:04 1026 30.3 855 25.25 10.8 51.5 67 5 41.1 11.04 0.435
09:05 1026 30.3 855 25.25 11 51.7 67 5 41 11.15 0.439
09:06 1026 30.3 855 25.25 11.1 52 67 5.2 41.3 11.27 0.444
09:07 1026 30.3 855 25.25 11.3 52.3 67 5.4 41.7 11.42 0.45
09:08 1026 30.3 855 25.25 11.6 52.9 66 5.5 41.9 11.63 0.458
09:09 1026 30.3 855 25.25 11.8 53.3 65 5.5 41.9 11.83 0.466
09:10 1026 30.3 855 25.25 11.9 53.5 63 5.1 41.1 11.92 0.469
09:11 1026 30.3 855 25.25 12 53.6 65 5.6 42.1 12.02 0.473
09:12 1026 30.3 855 25.25 12.1 53.7 63 5.2 41.4 12.09 0.476
09:13 1026 30.3 855 25.25 12.1 53.7 64 5.5 41.8 12.12 0.477
09:14 1026 30.3 855 25.25 12.2 54 62 5.2 41.4 12.19 0.48
09:15 1026 30.3 855 25.25 12.4 54.3 64 5.8 42.4 12.31 0.485
09:16 1026 30.3 855 25.25 12.4 54.3 63 5.6 42.1 12.4 0.488
09:17 1026 30.3 855 25.25 12.4 54.4 64 5.9 42.7 12.5 0.492
09:18 1026 30.3 855 25.25 12.4 54.3 61 5.1 41.2 12.52 0.493
09:19 1026 30.3 855 25.25 12.4 54.4 64 5.8 42.5 12.54 0.494
09:20 1026 30.3 855 25.25 12.5 54.4 63 5.6 42.1 12.57 0.495
09:21 1026 30.3 855 25.25 12.4 54.2 61 5.2 41.3 12.46 0.491
09:22 1026 30.3 855 25.25 12.4 54.2 62 5.4 41.7 12.44 0.49
09:23 1026 30.3 855 25.25 12.5 54.6 63 5.7 42.2 12.57 0.495
09:24 1026 30.3 855 25.25 12.8 55 63 5.9 42.7 12.74 0.502
09:25 1026 30.3 855 25.25 13.1 55.5 65 6.6 43.9 12.98 0.511
09:26 1026 30.3 855 25.25 13.3 56 62 6.2 43.1 13 0.512
09:27 1026 30.3 855 25.25 13.4 56.1 59 5.5 41.9 12.98 0.511
09:28 1026 30.3 855 25.25 13.4 56 63 6.5 43.7 12.84 0.506
09:29 1026 30.3 855 25.25 13.3 55.9 61 5.9 42.7 12.87 0.507
09:30 1026 30.3 855 25.25 13.1 55.6 62 6 42.8 12.96 0.51
09:31 1026 30.3 855 25.25 13.1 55.6 63 6.3 43.4 13.1 0.516
09:32 1026 30.3 855 25.25 13.2 55.7 61 5.8 42.5 13.21 0.52
09:33 1026 30.3 855 25.25 13.1 55.6 63 6.2 43.2 13.17 0.519
09:34 1026 30.3 855 25.25 13.2 55.7 61 5.9 42.6 13.18 0.519
09:35 1026 30.3 855 25.25 13.3 55.9 60 5.8 42.5 13.16 0.518
09:36 1026 30.3 855 25.25 13.3 55.9 61 5.9 42.6 12.98 0.511
09:37 1026 30.3 855 25.25 13.2 55.8 64 6.5 43.7 12.92 0.509
09:38 1026 30.3 855 25.25 13.2 55.7 63 6.2 43.2 13.02 0.513
09:39 1026 30.3 855 25.25 13.1 55.6 61 5.8 42.4 13.09 0.515
09:40 1026 30.3 855 25.25 13.1 55.6 62 6.1 43 13.2 0.52
09:41 1026 30.3 855 25.25 13.2 55.8 60 5.7 42.3 13.29 0.523
09:42 1026 30.3 855 25.25 13.3 55.9 60 5.8 42.4 13.39 0.527
09:43 1026 30.3 855 25.25 13.4 56.1 61 6 42.8 13.49 0.531
09:44 1026 30.3 855 25.25 13.4 56.2 60 5.9 42.7 13.57 0.534
09:45 1026 30.3 855 25.25 13.5 56.3 59 5.7 42.3 13.62 0.536
09:46 1026 30.3 855 25.25 13.6 56.4 60 6 42.8 13.74 0.541
09:47 1026 30.3 855 25.25 13.6 56.4 61 6.2 43.1 13.8 0.543
09:48 1026 30.3 855 25.25 13.7 56.6 58 5.7 42.2 13.88 0.546
09:49 1026 30.3 855 25.25 13.7 56.7 59 5.8 42.5 13.91 0.548
09:50 1026 30.3 855 25.25 13.8 56.8 58 5.7 42.2 13.98 0.55
09:51 1026 30.3 855 25.25 14 57.1 57 5.8 42.4 14.05 0.553
09:52 1026 30.3 855 25.25 14 57.3 55 5.3 41.5 14.14 0.557
09:53 1026 30.3 855 25.25 14.2 57.6 55 5.5 41.9 14.24 0.561
09:54 1026 30.3 855 25.25 14.4 57.9 56 5.7 42.3 14.3 0.563
09:55 1026 30.3 855 25.25 14.5 58.1 56 5.9 42.7 14.28 0.562
09:56 1026 30.3 855 25.25 14.5 58 58 6.4 43.5 14.13 0.556
09:57 1026 30.3 855 25.25 14.4 58 54 5.3 41.5 14.06 0.554
09:58 1026 30.3 855 25.25 14.4 57.9 57 6 42.8 14.07 0.554
09:59 1026 30.3 855 25.25 14.5 58.2 56 5.8 42.5 14.25 0.561
10:00 1026 30.3 855 25.25 14.6 58.4 57 6.4 43.5 14.3 0.563
10:01 1026 30.3 855 25.25 14.7 58.4 55 5.9 42.6 14.41 0.567
10:02 1026 30.3 855 25.25 14.5 58.1 54 5.4 41.7 14.42 0.568
10:03 1026 30.3 855 25.25 14.5 58.1 55 5.6 42.2 14.48 0.57
10:04 1026 30.3 855 25.25 14.7 58.4 54 5.5 41.9 14.57 0.574
10:05 1026 30.3 855 25.25 14.8 58.6 55 5.9 42.7 14.49 0.57
10:06 1026 30.3 855 25.25 14.7 58.4 57 6.4 43.5 14.41 0.567
10:07 1026 30.3 855 25.25 14.6 58.3 59 6.8 44.2 14.33 0.564
10:08 1026 30.3 855 25.25 14.6 58.2 54 5.5 41.9 14.36 0.565
10:09 1026 30.3 855 25.25 14.6 58.3 55 5.7 42.3 14.47 0.57
10:10 1026 30.3 855 25.25 14.7 58.5 55 5.9 42.6 14.56 0.573
10:11 1026 30.3 855 25.25 14.8 58.7 53 5.5 41.9 14.6 0.575
10:12 1026 30.3 855 25.25 14.9 58.8 55 6 42.7 14.61 0.575
10:13 1026 30.3 855 25.25 14.9 58.8 52 5.2 41.3 14.69 0.578
10:14 1026 30.3 855 25.25 15 58.9 55 6.1 43 14.87 0.585
10:15 1026 30.3 855 25.25 15 58.9 57 6.7 44.1 14.9 0.587
10:16 1026 30.3 855 25.25 15.1 59.1 52 5.4 41.7 14.95 0.589
10:17 1026 30.3 855 25.25 15.1 59.2 56 6.4 43.5 15.07 0.593
10:18 1026 30.3 855 25.25 15.1 59.2 52 5.3 41.6 15.17 0.597
10:19 1026 30.3 855 25.25 15.1 59.1 50 4.8 40.7 15.16 0.597
10:20 1026 30.3 855 25.25 15 59 54 5.8 42.5 15.19 0.598
10:21 1026 30.3 855 25.25 15.1 59.1 53 5.6 42 15.26 0.601
10:22 1026 30.3 855 25.25 15.2 59.4 51 5.2 41.4 15.3 0.602
10:23 1026 30.3 855 25.25 15.3 59.5 53 6 42.7 15.41 0.607
10:24 1026 30.3 855 25.25 15.5 60 51 5.5 42 15.64 0.616
10:25 1025 30.27 855 25.25 15.7 60.3 51 5.8 42.4 15.69 0.618
10:26 1025 30.27 855 25.25 15.9 60.6 54 6.5 43.8 15.71 0.619
10:27 1025 30.27 855 25.25 15.9 60.6 55 7.1 44.7 15.75 0.62
10:28 1026 30.3 855 25.25 15.8 60.4 50 5.4 41.8 15.81 0.622
10:29 1026 30.3 855 25.25 15.8 60.4 51 5.9 42.6 15.91 0.626
10:30 1025 30.27 855 25.25 15.9 60.6 50 5.6 42 16.05 0.632
10:31 1025 30.27 855 25.25 16 60.8 47 4.9 40.8 16.22 0.639
10:32 1026 30.3 855 25.25 16.1 61 50 5.9 42.6 16.22 0.639
10:33 1026 30.3 855 25.25 16.2 61.1 48 5.1 41.3 16.09 0.633
10:34 1026 30.3 855 25.25 16.1 60.9 48 5.1 41.2 15.89 0.626
10:35 1025 30.27 855 25.25 15.9 60.6 51 6 42.8 15.74 0.62
10:36 1025 30.27 855 25.25 15.8 60.4 50 5.5 41.9 15.71 0.619
10:37 1025 30.27 855 25.25 15.8 60.5 50 5.4 41.7 15.76 0.62
10:38 1025 30.27 855 25.25 15.8 60.4 50 5.4 41.7 15.75 0.62
10:39 1025 30.27 855 25.25 15.8 60.5 48 5 41.1 15.82 0.623
10:40 1025 30.27 855 25.25 15.9 60.6 48 5 41 15.9 0.626
10:41 1025 30.27 855 25.25 16 60.7 50 5.6 42.1 15.94 0.628
10:42 1026 30.3 855 25.25 16 60.8 45 4.2 39.5 15.94 0.628
10:43 1025 30.27 855 25.25 16 60.8 49 5.3 41.6 15.89 0.626
10:44 1025 30.27 855 25.25 16.1 60.9 46 4.7 40.4 16.1 0.634
10:45 1025 30.27 855 25.25 16.2 61.1 46 4.8 40.6 16.29 0.641
10:46 1025 30.27 855 25.25 16.3 61.3 47 5 41 16.39 0.645
10:47 1025 30.27 855 25.25 16.3 61.4 48 5.6 42 16.23 0.639
10:48 1025 30.27 855 25.25 16.3 61.4 46 4.9 40.9 16.24 0.639
10:49 1025 30.27 855 25.25 16.5 61.6 52 6.6 43.9 16.49 0.649
10:50 1025 30.27 855 25.25 16.6 61.9 46 5.1 41.2 16.67 0.656
10:51 1025 30.27 855 25.25 16.7 62 48 5.8 42.5 16.54 0.651
10:52 1025 30.27 855 25.25 16.6 61.8 47 5.5 41.8 16.38 0.645
10:53 1025 30.27 855 25.25 16.4 61.5 48 5.5 41.8 16.25 0.64
10:54 1025 30.27 855 25.25 16.3 61.4 51 6.3 43.4 16.21 0.638
10:55 1025 30.27 855 25.25 16.3 61.4 54 7.1 44.8 16.33 0.643
10:56 1025 30.27 855 25.25 16.4 61.5 48 5.6 42 16.42 0.646
10:57 1025 30.27 855 25.25 16.3 61.4 47 5.1 41.2 16.24 0.639
10:58 1025 30.27 855 25.25 16.3 61.3 49 5.5 41.9 16.16 0.636
10:59 1025 30.27 855 25.25 16.3 61.3 48 5.2 41.4 16.26 0.64
11:00 1025 30.27 855 25.25 16.4 61.5 47 5.3 41.6 16.4 0.646
11:01 1025 30.27 855 25.25 16.5 61.7 48 5.4 41.8 16.5 0.65
11:02 1025 30.27 855 25.25 16.6 61.8 52 6.8 44.3 16.58 0.653
11:03 1025 30.27 855 25.25 16.7 62.1 47 5.5 41.8 16.81 0.662
11:04 1025 30.27 854 25.22 16.9 62.4 49 6.2 43.1 16.92 0.666
11:05 1025 30.27 855 25.25 17.1 62.7 48 6 42.7 16.96 0.668
11:06 1025 30.27 855 25.25 17 62.6 49 6.2 43.1 16.95 0.667
11:07 1025 30.27 854 25.22 17 62.5 47 5.7 42.3 16.83 0.663
11:08 1025 30.27 854 25.22 16.9 62.4 51 6.9 44.4 16.88 0.665
11:09 1025 30.27 854 25.22 16.9 62.5 51 6.8 44.2 16.99 0.669
11:10 1025 30.27 854 25.22 16.9 62.5 46 5.5 41.8 17.02 0.67
11:11 1025 30.27 855 25.25 16.9 62.3 48 5.8 42.5 16.95 0.667
11:12 1025 30.27 854 25.22 16.9 62.5 48 6 42.7 17.02 0.67
11:13 1025 30.27 854 25.22 17 62.6 47 5.6 42.1 17.07 0.672
11:14 1025 30.27 854 25.22 17 62.5 49 6.2 43.2 17.13 0.674
11:15 1025 30.27 854 25.22 16.9 62.4 49 6.1 43.1 17.16 0.676
11:16 1025 30.27 855 25.25 16.9 62.4 50 6.5 43.7 17.15 0.675
11:17 1025 30.27 854 25.22 16.8 62.3 46 5.3 41.6 17.17 0.676
11:18 1025 30.27 854 25.22 16.8 62.3 47 5.4 41.8 17.18 0.676
11:19 1025 30.27 854 25.22 16.9 62.3 48 5.8 42.4 17.3 0.681
11:20 1025 30.27 854 25.22 17 62.6 53 7.5 45.6 17.39 0.685
11:21 1025 30.27 854 25.22 17.2 62.9 48 6.2 43.2 17.52 0.69
11:22 1025 30.27 854 25.22 17.2 63 49 6.4 43.6 17.54 0.691
11:23 1025 30.27 854 25.22 17.3 63.2 49 6.7 44 17.61 0.693
11:24 1025 30.27 854 25.22 17.5 63.5 54 8.3 47 17.66 0.695
11:25 1025 30.27 854 25.22 17.6 63.7 50 7.2 44.9 17.7 0.697
11:26 1025 30.27 854 25.22 17.8 64 50 7.2 45 17.81 0.701
11:27 1025 30.27 854 25.22 17.9 64.2 46 6.3 43.4 17.98 0.708
11:28 1025 30.27 854 25.22 17.8 64 45 5.9 42.5 17.9 0.705
11:29 1025 30.27 854 25.22 17.7 63.8 46 6.2 43.1 17.75 0.699
11:30 1025 30.27 854 25.22 17.7 63.8 47 6.4 43.6 17.61 0.693
11:31 1025 30.27 854 25.22 17.7 63.8 47 6.3 43.4 17.7 0.697
11:32 1025 30.27 854 25.22 17.7 63.9 52 7.8 46 17.85 0.703
11:33 1025 30.27 854 25.22 17.7 63.9 47 6.5 43.7 17.98 0.708
11:34 1025 30.27 854 25.22 17.6 63.7 51 7.4 45.4 17.91 0.705
11:35 1025 30.27 854 25.22 17.5 63.4 46 6 42.7 17.83 0.702
11:36 1025 30.27 854 25.22 17.3 63.2 51 7.2 45 17.78 0.7
11:37 1025 30.27 854 25.22 17.3 63.1 51 7.1 44.8 17.71 0.697
11:38 1025 30.27 854 25.22 17.3 63.2 49 6.7 44.1 17.78 0.7
11:39 1025 30.27 854 25.22 17.4 63.3 47 6.2 43.1 17.79 0.7
11:40 1025 30.27 854 25.22 17.4 63.3 49 6.7 44 17.81 0.701
11:41 1025 30.27 854 25.22 17.4 63.2 48 6.4 43.6 17.78 0.7
11:42 1025 30.27 854 25.22 17.4 63.2 55 8.3 46.9 17.75 0.699
11:43 1025 30.27 854 25.22 17.3 63.2 47 6 42.8 17.84 0.702
11:44 1025 30.27 854 25.22 17.4 63.3 49 6.7 44.1 17.78 0.7
11:45 1025 30.27 854 25.22 17.4 63.3 47 6 42.8 17.84 0.702
11:46 1025 30.27 854 25.22 17.4 63.4 45 5.6 42.1 17.89 0.704
11:47 1025 30.27 854 25.22 17.4 63.4 49 6.8 44.3 17.92 0.706
11:48 1025 30.27 854 25.22 17.5 63.5 49 6.9 44.5 17.97 0.707
11:49 1025 30.27 854 25.22 17.6 63.8 47 6.3 43.3 18.08 0.712
11:50 1025 30.27 854 25.22 17.8 64.1 44 5.5 41.9 18.13 0.714
11:51 1025 30.27 854 25.22 17.9 64.2 49 7.1 44.8 18.12 0.713
11:52 1025 30.27 854 25.22 18 64.4 44 5.8 42.5 18.13 0.714
11:53 1025 30.27 854 25.22 18 64.3 47 6.8 44.2 18.08 0.712
11:54 1025 30.27 854 25.22 17.9 64.3 49 7.3 45.1 18.03 0.71
11:55 1025 30.27 854 25.22 18 64.3 48 6.9 44.4 18.09 0.712
11:56 1025 30.27 854 25.22 18.1 64.5 52 8.2 46.8 18.3 0.72
11:57 1025 30.27 854 25.22 18.2 64.8 43 5.7 42.3 18.41 0.725
11:58 1025 30.27 854 25.22 18.3 64.9 52 8.3 46.9 18.42 0.725
11:59 1025 30.27 854 25.22 18.3 65 44 6.1 43 18.49 0.728
12:00 1025 30.27 854 25.22 18.4 65 52 8.5 47.3 18.48 0.728
12:01 1025 30.27 854 25.22 18.4 65.1 50 8 46.5 18.61 0.733
12:02 1025 30.27 854 25.22 18.4 65.2 46 6.6 43.9 18.69 0.736
12:03 1025 30.27 854 25.22 18.6 65.4 47 7.1 44.8 18.7 0.736
12:04 1025 30.27 854 25.22 18.6 65.5 46 6.8 44.3 18.68 0.735
12:05 1025 30.27 854 25.22 18.5 65.3 43 5.8 42.5 18.61 0.733
12:06 1025 30.27 854 25.22 18.5 65.2 45 6.4 43.4 18.56 0.731
12:07 1025 30.27 854 25.22 18.5 65.3 45 6.5 43.6 18.58 0.731
12:08 1025 30.27 854 25.22 18.4 65.2 44 6.1 43 18.59 0.732
12:09 1025 30.27 854 25.22 18.5 65.2 52 8.6 47.5 18.58 0.731
12:10 1025 30.27 854 25.22 18.5 65.4 44 6.2 43.1 18.62 0.733
12:11 1025 30.27 854 25.22 18.6 65.4 45 6.4 43.6 18.69 0.736
12:12 1025 30.27 854 25.22 18.6 65.5 47 7.2 45 18.73 0.737
12:13 1025 30.27 854 25.22 18.6 65.5 48 7.3 45.2 18.73 0.737
12:14 1025 30.27 854 25.22 18.5 65.4 45 6.4 43.5 18.75 0.738
12:15 1025 30.27 854 25.22 18.6 65.4 47 7.3 45.2 18.82 0.741
12:16 1025 30.27 854 25.22 18.6 65.5 48 7.4 45.4 18.88 0.743
12:17 1025 30.27 854 25.22 18.6 65.5 43 6 42.7 18.9 0.744
12:18 1025 30.27 854 25.22 18.5 65.4 46 6.9 44.4 18.84 0.742
12:19 1025 30.27 854 25.22 18.6 65.5 47 7.3 45.1 18.91 0.744
12:20 1025 30.27 854 25.22 18.8 65.8 51 8.6 47.5 19.03 0.749
12:21 1025 30.27 854 25.22 18.9 66.1 44 6.4 43.6 19.12 0.753
12:22 1025 30.27 854 25.22 19 66.2 47 7.5 45.4 19.22 0.757
12:23 1025 30.27 854 25.22 19.1 66.3 42 6 42.8 19.22 0.757
12:24 1025 30.27 854 25.22 19 66.3 51 8.8 47.8 19.08 0.751
12:25 1025 30.27 854 25.22 19.1 66.3 41 5.6 42 19.2 0.756
12:26 1025 30.27 854 25.22 19.1 66.4 41 5.6 42.1 19.25 0.758
12:27 1025 30.27 854 25.22 19.1 66.4 48 8.1 46.5 19.42 0.765
12:28 1025 30.27 854 25.22 19.2 66.6 43 6.4 43.6 19.57 0.77
12:29 1025 30.27 854 25.22 19.3 66.7 47 7.9 46.3 19.59 0.771
12:30 1025 30.27 854 25.22 19.3 66.7 46 7.4 45.3 19.48 0.767
12:31 1025 30.27 854 25.22 19.3 66.8 47 7.8 46.1 19.42 0.765
12:32 1025 30.27 854 25.22 19.4 66.8 44 7 44.6 19.5 0.768
12:33 1025 30.27 854 25.22 19.4 66.9 45 7.2 45 19.52 0.769
12:34 1025 30.27 854 25.22 19.4 66.9 47 7.9 46.3 19.54 0.769
12:35 1025 30.27 854 25.22 19.5 67 43 6.6 43.9 19.52 0.769
12:36 1025 30.27 854 25.22 19.5 67 45 7.5 45.5 19.54 0.769
12:37 1025 30.27 854 25.22 19.4 67 42 6.3 43.4 19.46 0.766
12:38 1025 30.27 854 25.22 19.3 66.8 43 6.6 43.9 19.32 0.761
12:39 1025 30.27 854 25.22 19.3 66.7 44 6.9 44.5 19.34 0.761
12:40 1025 30.27 854 25.22 19.3 66.7 46 7.6 45.7 19.41 0.764
12:41 1025 30.27 854 25.22 19.4 66.9 40 5.7 42.3 19.53 0.769
12:42 1025 30.27 854 25.22 19.6 67.2 45 7.3 45.1 19.63 0.773
12:43 1025 30.27 854 25.22 19.7 67.4 47 8.1 46.6 19.73 0.777
12:44 1025 30.27 854 25.22 19.7 67.5 42 6.5 43.6 19.79 0.779
12:45 1025 30.27 854 25.22 19.7 67.4 43 7 44.5 19.8 0.78
12:46 1025 30.27 854 25.22 19.6 67.2 42 6.3 43.4 19.77 0.778
12:47 1025 30.27 854 25.22 19.6 67.2 42 6.5 43.7 19.79 0.779
12:48 1025 30.27 854 25.22 19.6 67.3 44 7 44.6 19.92 0.784
12:49 1025 30.27 854 25.22 19.6 67.4 43 7 44.6 19.95 0.785
12:50 1025 30.27 854 25.22 19.7 67.4 40 5.8 42.5 20 0.787
12:51 1025 30.27 854 25.22 19.8 67.6 43 7 44.6 20.07 0.79
12:52 1025 30.27 854 25.22 19.9 67.7 43 7 44.7 20.18 0.794
12:53 1025 30.27 854 25.22 20 67.9 39 5.7 42.2 20.32 0.8
12:54 1025 30.27 854 25.22 20.1 68.2 42 7.1 44.8 20.47 0.806
12:55 1025 30.27 854 25.22 20.3 68.5 47 8.8 47.8 20.64 0.813
12:56 1025 30.27 854 25.22 20.3 68.6 41 6.7 44.1 20.64 0.813
12:57 1025 30.27 854 25.22 20.3 68.6 41 7 44.6 20.66 0.813
12:58 1025 30.27 854 25.22 20.4 68.7 41 6.7 44 20.62 0.812
12:59 1025 30.27 854 25.22 20.4 68.7 43 7.6 45.7 20.64 0.813
13:00 1024 30.24 854 25.22 20.5 68.8 38 5.9 42.7 20.59 0.811
13:01 1024 30.24 854 25.22 20.4 68.7 40 6.5 43.7 20.49 0.807
13:02 1024 30.24 854 25.22 20.3 68.5 38 5.8 42.5 20.4 0.803
13:03 1024 30.24 854 25.22 20.2 68.4 40 6.4 43.5 20.28 0.798
13:04 1024 30.24 854 25.22 20.2 68.4 42 6.9 44.5 20.33 0.8
13:05 1024 30.24 854 25.22 20.3 68.5 39 6 42.8 20.41 0.804
13:06 1024 30.24 854 25.22 20.3 68.5 38 5.7 42.2 20.29 0.799
13:07 1024 30.24 854 25.22 20.2 68.4 38 5.5 41.8 20.26 0.798
13:08 1024 30.24 854 25.22 20.2 68.4 42 7.2 44.9 20.43 0.804
13:09 1024 30.24 854 25.22 20.3 68.6 38 5.8 42.5 20.48 0.806
13:10 1024 30.24 854 25.22 20.4 68.6 40 6.5 43.7 20.43 0.804
13:11 1024 30.24 854 25.22 20.4 68.8 38 5.7 42.3 20.52 0.808
13:12 1024 30.24 854 25.22 20.5 69 39 6.2 43.2 20.72 0.816
13:13 1024 30.24 854 25.22 20.8 69.4 44 8.1 46.6 21 0.827
13:14 1024 30.24 854 25.22 21 69.7 36 5.7 42.2 21.2 0.835
13:15 1024 30.24 854 25.22 21 69.7 44 8.2 46.8 21.08 0.83
13:16 1024 30.24 854 25.22 20.9 69.6 45 8.7 47.6 21.02 0.828
13:17 1024 30.24 854 25.22 20.9 69.7 40 7.1 44.8 21.07 0.83
13:18 1024 30.24 854 25.22 20.9 69.7 39 6.5 43.7 20.99 0.826
13:19 1024 30.24 854 25.22 20.9 69.5 37 5.8 42.5 20.97 0.826
13:20 1024 30.24 854 25.22 20.9 69.6 37 5.7 42.2 21.08 0.83
13:21 1024 30.24 854 25.22 21 69.8 39 6.6 43.9 21.31 0.839
13:22 1024 30.24 854 25.22 21.1 70 36 5.7 42.3 21.25 0.837
13:23 1024 30.24 854 25.22 21.2 70.1 36 5.8 42.4 21.26 0.837
13:24 1024 30.24 853 25.19 21.3 70.3 36 5.9 42.6 21.42 0.843
13:25 1024 30.24 853 25.19 21.3 70.4 37 6.2 43.1 21.53 0.848
13:26 1024 30.24 853 25.19 21.3 70.4 33 4.8 40.6 21.64 0.852
13:27 1024 30.24 853 25.19 21.5 70.6 36 6 42.9 21.83 0.859
13:28 1024 30.24 853 25.19 21.6 70.8 33 4.8 40.6 21.92 0.863
13:29 1024 30.24 853 25.19 21.5 70.7 39 7.2 44.9 21.85 0.86
13:30 1024 30.24 853 25.19 21.3 70.4 36 6 42.8 21.9 0.862
13:31 1024 30.24 853 25.19 21.4 70.4 38 6.7 44.1 22.08 0.869
13:32 1024 30.24 853 25.19 21.5 70.7 38 6.8 44.2 22.2 0.874
13:33 1024 30.24 853 25.19 21.5 70.6 41 7.7 45.9 22.06 0.869
13:34 1024 30.24 853 25.19 21.3 70.4 40 7.4 45.3 21.9 0.862
13:35 1024 30.24 853 25.19 21.3 70.4 37 6.1 43 21.89 0.862
13:36 1024 30.24 853 25.19 21.4 70.6 38 6.7 44 21.9 0.862
13:37 1024 30.24 853 25.19 21.6 70.8 36 6.1 43 21.81 0.859
13:38 1024 30.24 853 25.19 21.6 70.9 39 7.3 45.1 21.82 0.859
13:39 1024 30.24 853 25.19 21.7 71 39 7.1 44.9 21.86 0.861
13:40 1024 30.24 853 25.19 21.7 71 34 5.2 41.4 21.82 0.859
13:41 1024 30.24 853 25.19 21.7 71 40 7.7 45.9 21.83 0.859
13:42 1024 30.24 853 25.19 21.7 71.1 36 6 42.8 21.86 0.861
13:43 1024 30.24 853 25.19 21.8 71.2 37 6.7 44 21.88 0.861
13:44 1024 30.24 853 25.19 21.8 71.2 39 7.3 45.1 21.93 0.863
13:45 1024 30.24 853 25.19 21.8 71.2 42 8.6 47.4 22.03 0.867
13:46 1024 30.24 853 25.19 21.8 71.3 39 7.3 45.1 22 0.866
13:47 1024 30.24 853 25.19 21.8 71.3 37 6.6 43.8 21.97 0.865
13:48 1024 30.24 853 25.19 21.8 71.3 37 6.8 44.3 21.97 0.865
13:49 1024 30.24 853 25.19 21.8 71.3 35 5.8 42.5 22.03 0.867
13:50 1024 30.24 853 25.19 21.8 71.3 40 7.7 45.8 22.03 0.867
13:51 1024 30.24 853 25.19 21.8 71.3 43 9 48.2 22.09 0.87
13:52 1024 30.24 853 25.19 22 71.5 36 6.3 43.4 21.98 0.865
13:53 1024 30.24 853 25.19 22 71.6 35 6.1 42.9 22.03 0.867
13:54 1024 30.24 853 25.19 22.1 71.8 37 6.9 44.4 22.15 0.872
13:55 1024 30.24 853 25.19 22.2 72 38 7.2 45 22.4 0.882
13:56 1024 30.24 853 25.19 22.2 72 39 7.7 45.8 22.44 0.883
13:57 1024 30.24 853 25.19 22.1 71.8 38 7.4 45.4 22.36 0.88
13:58 1024 30.24 853 25.19 22 71.6 37 6.6 43.9 22.24 0.876
13:59 1024 30.24 853 25.19 21.9 71.4 35 6 42.7 22.16 0.872
14:00 1024 30.24 853 25.19 21.9 71.3 33 5.2 41.4 22.18 0.873
14:01 1024 30.24 853 25.19 21.9 71.5 38 7.1 44.7 22.27 0.877
14:02 1024 30.24 853 25.19 22.1 71.7 33 5 41 22.36 0.88
14:03 1024 30.24 853 25.19 22.1 71.8 37 6.8 44.3 22.41 0.882
14:04 1024 30.24 853 25.19 22.3 72.1 34 5.8 42.4 22.52 0.887
14:05 1024 30.24 853 25.19 22.4 72.3 39 7.8 46.1 22.6 0.89
14:06 1024 30.24 853 25.19 22.5 72.5 39 8 46.4 22.64 0.891
14:07 1024 30.24 853 25.19 22.7 72.8 35 6.4 43.6 22.66 0.892
14:08 1024 30.24 853 25.19 22.8 73 37 7.6 45.7 22.75 0.896
14:09 1024 30.24 853 25.19 22.8 73.1 30 4.5 40.1 22.69 0.893
14:10 1024 30.24 853 25.19 22.8 73.1 33 5.8 42.5 22.62 0.891
14:11 1024 30.24 853 25.19 22.9 73.1 30 4.8 40.6 22.69 0.893
14:12 1024 30.24 853 25.19 22.8 73.1 31 5 41.1 22.74 0.895
14:13 1024 30.24 853 25.19 22.9 73.2 31 4.9 40.9 22.78 0.897
14:14 1024 30.24 853 25.19 22.9 73.2 32 5.3 41.6 22.85 0.9
14:15 1024 30.24 853 25.19 22.9 73.2 33 6.1 42.9 22.97 0.904
14:16 1024 30.24 853 25.19 22.9 73.3 35 6.8 44.2 22.92 0.902
14:17 1023 30.21 853 25.19 22.9 73.2 34 6.6 43.9 22.81 0.898
14:18 1023 30.21 853 25.19 22.9 73.2 32 5.6 42.1 22.81 0.898
14:19 1023 30.21 853 25.19 22.8 73.1 30 4.6 40.2 22.86 0.9
14:20 1023 30.21 853 25.19 22.8 73 35 6.5 43.7 22.9 0.902
14:21 1023 30.21 853 25.19 22.8 73 35 6.8 44.3 22.94 0.903
14:22 1023 30.21 853 25.19 22.9 73.2 31 4.9 40.8 22.89 0.901
14:23 1023 30.21 853 25.19 22.9 73.2 34 6.4 43.6 22.77 0.896
14:24 1023 30.21 853 25.19 22.9 73.1 30 4.6 40.3 22.73 0.895
14:25 1023 30.21 853 25.19 22.9 73.2 32 5.3 41.6 22.82 0.898
14:26 1023 30.21 853 25.19 22.9 73.2 35 6.6 43.9 22.93 0.903
14:27 1023 30.21 853 25.19 22.9 73.2 30 4.7 40.5 23.01 0.906
14:28 1023 30.21 853 25.19 22.9 73.3 30 4.9 40.7 22.93 0.903
14:29 1023 30.21 852 25.16 23 73.4 29 4.2 39.5 23.06 0.908
14:30 1023 30.21 852 25.16 23.2 73.7 31 5.1 41.2 23.13 0.911
14:31 1023 30.21 852 25.16 23.4 74 34 6.6 43.9 23.35 0.919
14:32 1023 30.21 852 25.16 23.5 74.3 31 5.5 41.9 23.53 0.926
14:33 1023 30.21 852 25.16 23.5 74.3 33 6.3 43.4 23.57 0.928
14:34 1023 30.21 852 25.16 23.5 74.2 34 6.9 44.5 23.61 0.93
14:35 1023 30.21 852 25.16 23.4 74 31 5.4 41.8 23.63 0.93
14:36 1023 30.21 852 25.16 23.4 74.1 36 7.8 46 23.72 0.934
14:37 1023 30.21 852 25.16 23.6 74.4 30 5.2 41.4 23.88 0.94
14:38 1023 30.21 852 25.16 23.6 74.5 30 5.1 41.2 23.68 0.932
14:39 1023 30.21 852 25.16 23.5 74.2 30 5.2 41.4 23.5 0.925
14:40 1023 30.21 852 25.16 23.4 74.1 31 5.7 42.2 23.38 0.92
14:41 1023 30.21 852 25.16 23.3 73.9 30 4.8 40.6 23.35 0.919
14:42 1023 30.21 852 25.16 23.3 74 32 6 42.9 23.35 0.919
14:43 1023 30.21 852 25.16 23.4 74.1 31 5.7 42.2 23.45 0.923
14:44 1023 30.21 852 25.16 23.4 74.2 32 6.2 43.2 23.46 0.924
14:45 1023 30.21 852 25.16 23.6 74.4 31 5.9 42.6 23.59 0.929
14:46 1023 30.21 852 25.16 23.7 74.7 28 4.2 39.5 23.65 0.931
14:47 1023 30.21 852 25.16 23.8 74.9 30 5.3 41.6 23.75 0.935
14:48 1023 30.21 852 25.16 24 75.3 29 5 41 24 0.945
14:49 1023 30.21 852 25.16 24.1 75.5 27 4.3 39.8 24.31 0.957
14:50 1023 30.21 852 25.16 24.2 75.5 27 4.4 39.9 24.46 0.963
14:51 1023 30.21 852 25.16 24.2 75.5 28 4.8 40.7 24.53 0.966
14:52 1023 30.21 852 25.16 24.2 75.5 28 4.8 40.6 24.62 0.969
14:53 1023 30.21 852 25.16 24.3 75.7 29 5.2 41.4 24.74 0.974
14:54 1023 30.21 852 25.16 24.5 76 28 5.2 41.3 24.88 0.98
14:55 1023 30.21 852 25.16 24.5 76.1 27 4.5 40.2 24.92 0.981
14:56 1023 30.21 852 25.16 24.5 76.1 28 5.3 41.5 24.82 0.977
14:57 1023 30.21 852 25.16 24.5 76.2 28 5.1 41.3 24.65 0.97
14:58 1023 30.21 852 25.16 24.5 76.1 27 4.4 39.9 24.54 0.966
14:59 1023 30.21 852 25.16 24.5 76.2 28 5.1 41.1 24.52 0.965
15:00 1023 30.21 852 25.16 24.6 76.3 24 3 37.3 24.51 0.965
15:01 1023 30.21 852 25.16 24.7 76.5 24 3 37.5 24.45 0.963
15:02 1023 30.21 852 25.16 24.8 76.6 25 3.4 38.2 24.6 0.969
15:03 1023 30.21 852 25.16 24.9 76.8 26 4.2 39.5 24.84 0.978
15:04 1023 30.21 852 25.16 25.1 77.2 25 4 39.1 25.06 0.987
15:05 1023 30.21 852 25.16 25.1 77.2 24 3.6 38.5 25.23 0.993
15:06 1023 30.21 852 25.16 25 77 25 3.8 38.8 25.31 0.996
15:07 1023 30.21 852 25.16 24.9 76.8 27 4.7 40.4 25.3 0.996
15:08 1023 30.21 852 25.16 24.9 76.7 27 5 41 25.25 0.994
15:09 1023 30.21 852 25.16 24.9 76.8 25 4.1 39.3 25.19 0.992
15:10 1023 30.21 852 25.16 24.9 76.7 27 5 41.1 24.98 0.983
15:11 1023 30.21 852 25.16 24.8 76.6 31 6.6 43.9 25 0.984
15:12 1023 30.21 852 25.16 24.8 76.6 30 6.3 43.3 25.24 0.994
15:13 1023 30.21 852 25.16 24.6 76.3 29 5.8 42.5 25.3 0.996
15:14 1023 30.21 852 25.16 24.5 76.1 28 5.2 41.4 25.22 0.993
15:15 1023 30.21 852 25.16 24.3 75.7 29 5.2 41.3 25.01 0.985
15:16 1023 30.21 852 25.16 24.1 75.5 30 5.7 42.3 24.84 0.978
15:17 1023 30.21 852 25.16 24.2 75.5 33 7.2 45 24.8 0.976
15:18 1023 30.21 852 25.16 24.1 75.4 30 5.5 42 24.69 0.972
15:19 1023 30.21 852 25.16 24.1 75.3 32 6.7 44.1 24.69 0.972
15:20 1023 30.21 852 25.16 24 75.3 28 4.7 40.4 24.63 0.97
15:21 1023 30.21 852 25.16 23.9 75.1 31 6.2 43.2 24.47 0.963
15:22 1023 30.21 852 25.16 23.9 75 30 5.6 42.1 24.44 0.962
15:23 1023 30.21 852 25.16 23.9 75 31 5.9 42.6 24.4 0.961
15:24 1023 30.21 852 25.16 23.9 75 36 8 46.5 24.37 0.959
15:25 1023 30.21 852 25.16 23.9 75 33 7 44.6 24.35 0.959
15:26 1023 30.21 852 25.16 23.9 75 29 5.1 41.1 24.4 0.961
15:27 1023 30.21 852 25.16 23.9 74.9 28 4.6 40.4 24.32 0.957
15:28 1023 30.21 852 25.16 23.8 74.8 30 5.5 42 24.31 0.957
15:29 1023 30.21 852 25.16 23.7 74.7 28 4.4 39.9 24.39 0.96
15:30 1023 30.21 852 25.16 23.7 74.7 27 3.9 39 24.36 0.959
15:31 1023 30.21 852 25.16 23.8 74.9 30 5.6 42 24.51 0.965
15:32 1023 30.21 852 25.16 24 75.1 28 4.8 40.6 24.67 0.971
15:33 1023 30.21 852 25.16 24.1 75.4 34 7.7 45.8 24.89 0.98
15:34 1023 30.21 852 25.16 24.2 75.5 31 6.2 43.2 25.05 0.986
15:35 1023 30.21 852 25.16 24.2 75.5 29 5.1 41.2 25.03 0.985
15:36 1023 30.21 852 25.16 24.2 75.6 32 6.8 44.3 25.05 0.986
15:37 1023 30.21 852 25.16 24.4 75.8 33 7.3 45.2 25.07 0.987
15:38 1023 30.21 852 25.16 24.3 75.8 29 5.5 42 25.12 0.989
15:39 1023 30.21 852 25.16 24.3 75.8 31 6.2 43.2 25.1 0.988
15:40 1023 30.21 852 25.16 24.3 75.8 33 7.4 45.4 25.05 0.986
15:41 1023 30.21 852 25.16 24.3 75.8 28 5 41 25.11 0.989
15:42 1023 30.21 852 25.16 24.2 75.6 29 5 41.1 25.05 0.986
15:43 1023 30.21 852 25.16 24.3 75.7 29 5.1 41.2 25.08 0.987
15:44 1023 30.21 852 25.16 24.2 75.6 28 4.9 40.8 25.1 0.988
15:45 1023 30.21 852 25.16 24.2 75.5 26 3.6 38.4 25.07 0.987
15:46 1023 30.21 852 25.16 24.3 75.7 27 4.1 39.3 25.12 0.989
15:47 1023 30.21 852 25.16 24.4 75.9 27 4.4 39.9 25.14 0.99
15:48 1023 30.21 852 25.16 24.3 75.8 26 3.6 38.6 25.1 0.988
15:49 1023 30.21 852 25.16 24.4 75.9 26 4 39.2 25.12 0.989
15:50 1023 30.21 852 25.16 24.3 75.8 23 2.3 36.1 25.07 0.987
15:51 1023 30.21 852 25.16 24.4 75.9 30 5.7 42.3 25.1 0.988
15:52 1023 30.21 852 25.16 24.6 76.3 24 2.9 37.2 25.27 0.995
15:53 1023 30.21 852 25.16 24.7 76.5 27 4.8 40.6 25.32 0.997
15:54 1023 30.21 852 25.16 24.8 76.6 30 6.2 43.1 25.35 0.998
15:55 1023 30.21 852 25.16 24.9 76.8 29 5.7 42.2 25.47 1.003
15:56 1023 30.21 852 25.16 24.9 76.8 32 7.5 45.4 25.54 1.006
15:57 1023 30.21 852 25.16 24.9 76.8 25 3.7 38.7 25.65 1.01
15:58 1023 30.21 852 25.16 24.9 76.7 28 5.6 42.1 25.67 1.011
15:59 1023 30.21 852 25.16 24.8 76.7 31 6.8 44.2 25.77 1.015
16:00 1023 30.21 852 25.16 24.8 76.6 25 3.5 38.3 25.77 1.015
16:01 1023 30.21 852 25.16 24.8 76.6 26 4.4 40 25.78 1.015
16:02 1023 30.21 852 25.16 24.9 76.9 23 2.8 37.1 25.87 1.019
16:03 1023 30.21 852 25.16 25.1 77.3 25 4 39.1 26.05 1.026
16:04 1023 30.21 852 25.16 25.4 77.6 26 4.6 40.4 26.15 1.03
16:05 1023 30.21 852 25.16 25.3 77.5 22 2.3 36.2 25.8 1.016
16:06 1023 30.21 852 25.16 25.1 77.2 24 3.6 38.5 25.65 1.01
16:07 1023 30.21 852 25.16 25.2 77.4 24 3.6 38.5 25.7 1.012
16:08 1022 30.18 852 25.16 25.3 77.6 23 2.7 36.9 25.62 1.009
16:09 1022 30.18 852 25.16 25.3 77.5 23 2.8 37 25.52 1.005
16:10 1022 30.18 852 25.16 25.2 77.4 27 5.2 41.4 25.4 1
16:11 1022 30.18 852 25.16 25.1 77.2 21 1.2 34.2 25.36 0.998
16:12 1022 30.18 852 25.16 25 76.9 21 1.2 34.1 25.37 0.999
16:13 1022 30.18 852 25.16 24.8 76.7 22 2.2 36 25.37 0.999
16:14 1022 30.18 852 25.16 24.8 76.6 21 1.3 34.4 25.41 1
16:15 1022 30.18 852 25.16 24.8 76.6 22 1.8 35.3 25.46 1.002
16:16 1022 30.18 852 25.16 24.8 76.6 20 0.9 33.5 25.48 1.003
16:17 1022 30.18 852 25.16 24.8 76.7 22 1.7 35.1 25.35 0.998
16:18 1022 30.18 852 25.16 25 76.9 22 2.1 35.9 25.46 1.002
16:19 1022 30.18 852 25.16 25.1 77.2 23 3 37.5 25.52 1.005
16:20 1022 30.18 852 25.16 25.2 77.3 23 2.6 36.8 25.54 1.006
16:21 1022 30.18 852 25.16 25.1 77.2 23 3 37.5 25.51 1.004
16:22 1022 30.18 852 25.16 25.1 77.1 22 2.3 36.1 25.57 1.007
16:23 1022 30.18 851 25.13 25 77 22 2.2 36 25.58 1.007
16:24 1022 30.18 852 25.16 25 76.9 25 3.7 38.7 25.74 1.013
16:25 1022 30.18 851 25.13 25 77 24 3.3 37.9 25.86 1.018
16:26 1022 30.18 851 25.13 25.1 77.1 21 1.6 34.9 25.8 1.016
16:27 1022 30.18 852 25.16 25.2 77.3 23 3 37.3 25.79 1.015
16:28 1022 30.18 851 25.13 25.2 77.4 26 4.6 40.3 25.83 1.017
16:29 1022 30.18 851 25.13 25.3 77.5 20 0.9 33.5 25.84 1.017
16:30 1022 30.18 851 25.13 25.4 77.6 24 3.8 38.8 25.95 1.022
16:31 1022 30.18 851 25.13 25.4 77.7 23 3.1 37.6 26.03 1.025
16:32 1022 30.18 851 25.13 25.4 77.6 24 3.3 37.9 26.05 1.026
16:33 1022 30.18 851 25.13 25.2 77.4 20 1 33.9 26.03 1.025
16:34 1022 30.18 851 25.13 25.2 77.3 24 3.2 37.7 26.06 1.026
16:35 1022 30.18 851 25.13 25.2 77.4 20 1.1 34 25.96 1.022
16:36 1022 30.18 851 25.13 25.4 77.6 25 4.4 39.9 26.08 1.027
16:37 1022 30.18 851 25.13 25.5 77.8 22 2.6 36.6 26.12 1.028
16:38 1022 30.18 851 25.13 25.4 77.7 20 1 33.9 26.1 1.028
16:39 1022 30.18 851 25.13 25.4 77.7 20 1 33.8 26.18 1.031
16:40 1022 30.18 851 25.13 25.5 77.9 25 4.2 39.5 26.29 1.035
16:41 1022 30.18 851 25.13 25.5 78 23 3.2 37.7 26.41 1.04
16:42 1022 30.18 851 25.13 25.5 78 21 1.8 35.2 26.41 1.04
16:43 1022 30.18 851 25.13 25.5 77.9 19 0.1 32.2 26.34 1.037
16:44 1022 30.18 851 25.13 25.5 77.9 20 1.1 33.9 26.22 1.032
16:45 1022 30.18 851 25.13 25.5 77.9 21 1.6 34.9 26.11 1.028
16:46 1022 30.18 851 25.13 25.5 77.9 23 3.2 37.7 26.1 1.028
16:47 1022 30.18 851 25.13 25.5 77.9 30 7 44.6 26.09 1.027
16:48 1022 30.18 851 25.13 25.6 78 25 4.1 39.4 26.23 1.033
16:49 1022 30.18 851 25.13 25.6 78.1 24 3.7 38.6 26.16 1.03
16:50 1022 30.18 851 25.13 25.8 78.4 23 3.1 37.6 26.3 1.035
16:51 1022 30.18 851 25.13 25.9 78.6 25 4.6 40.2 26.41 1.04
16:52 1022 30.18 851 25.13 26.1 78.9 26 5.4 41.7 26.58 1.046
16:53 1022 30.18 851 25.13 26.1 79 23 3.4 38.2 26.62 1.048
16:54 1022 30.18 851 25.13 26.2 79.2 23 3.5 38.2 26.74 1.053
16:55 1022 30.18 851 25.13 26.4 79.6 18 0.6 33 26.89 1.059
16:56 1022 30.18 851 25.13 26.6 79.9 21 2.9 37.2 27.04 1.065
16:57 1022 30.18 851 25.13 26.7 80 20 2.5 36.5 27.16 1.069
16:58 1022 30.18 851 25.13 26.6 80 21 2.8 37.1 27.11 1.067
16:59 1022 30.18 851 25.13 26.6 79.9 21 2.7 36.9 27.01 1.063
17:00 1022 30.18 851 25.13 26.6 79.8 22 3.7 38.7 27.05 1.065
17:01 1022 30.18 851 25.13 26.6 80 19 1.3 34.3 27.19 1.07
17:02 1022 30.18 851 25.13 26.7 80 22 3.5 38.3 27.28 1.074
17:03 1022 30.18 851 25.13 26.7 80 23 4.1 39.3 27.5 1.083
17:04 1022 30.18 851 25.13 26.8 80.2 23 4.1 39.4 27.63 1.088
17:05 1022 30.18 851 25.13 26.7 80.1 20 2 35.6 27.73 1.092
17:06 1022 30.18 851 25.13 26.7 80 22 3.7 38.6 27.91 1.099
17:07 1022 30.18 851 25.13 26.7 80 20 2.5 36.4 28.09 1.106
17:08 1022 30.18 851 25.13 26.8 80.2 19 1.2 34.1 28.14 1.108
17:09 1022 30.18 851 25.13 26.8 80.2 21 3.2 37.7 28.16 1.109
17:10 1022 30.18 851 25.13 26.8 80.3 21 2.7 36.9 28.08 1.106
17:11 1022 30.18 851 25.13 26.8 80.2 17 0.1 32.2 28.14 1.108
17:12 1022 30.18 851 25.13 26.6 79.9 20 2 35.6 28.18 1.109
17:13 1022 30.18 851 25.13 26.4 79.5 20 1.6 34.9 28.1 1.106
17:14 1022 30.18 851 25.13 26.2 79.2 19 1 33.7 28.05 1.104
17:15 1022 30.18 851 25.13 26.1 79 21 2.1 35.8 27.81 1.095
17:16 1022 30.18 851 25.13 25.9 78.7 22 2.6 36.7 27.55 1.085
17:17 1022 30.18 851 25.13 25.8 78.4 26 5.1 41.1 27.41 1.079
17:18 1022 30.18 851 25.13 25.7 78.2 31 7.4 45.3 27.16 1.069
17:19 1022 30.18 851 25.13 25.5 78 28 5.9 42.5 27.04 1.065
17:20 1022 30.18 851 25.13 25.5 77.9 30 7.2 44.9 26.9 1.059
17:21 1022 30.18 851 25.13 25.5 77.8 20 1.1 34 26.92 1.06
17:22 1022 30.18 851 25.13 25.4 77.7 32 7.6 45.6 26.85 1.057
17:23 1022 30.18 851 25.13 25.4 77.8 27 5.3 41.6 26.85 1.057
17:24 1022 30.18 851 25.13 25.4 77.7 25 4.3 39.7 26.69 1.051
17:25 1022 30.18 851 25.13 25.3 77.6 26 4.5 40.1 26.46 1.042
17:26 1022 30.18 851 25.13 25.3 77.5 25 4 39.2 26.27 1.034
17:27 1022 30.18 851 25.13 25.3 77.5 25 4.3 39.7 26.18 1.031
17:28 1022 30.18 851 25.13 25.3 77.6 26 4.6 40.2 26.05 1.026
17:29 1022 30.18 851 25.13 25.3 77.5 25 4 39.2 25.98 1.023
17:30 1022 30.18 851 25.13 25.2 77.4 26 4.8 40.7 25.92 1.02
17:31 1022 30.18 851 25.13 25.2 77.4 26 4.5 40.1 25.85 1.018
17:32 1022 30.18 851 25.13 25.2 77.4 29 6.2 43.2 25.85 1.018
17:33 1022 30.18 851 25.13 25.3 77.5 32 7.8 46 25.82 1.017
17:34 1022 30.18 851 25.13 25.2 77.4 31 7.1 44.8 25.79 1.015
17:35 1022 30.18 851 25.13 25.2 77.3 34 8.2 46.8 25.63 1.009
17:36 1022 30.18 851 25.13 25.1 77.1 35 8.8 47.9 25.54 1.006
17:37 1022 30.18 851 25.13 25 76.9 39 10.4 50.8 25.4 1
17:38 1022 30.18 851 25.13 24.8 76.6 37 9.4 48.9 25.34 0.998
17:39 1022 30.18 851 25.13 24.5 76.2 36 8.8 47.8 25.24 0.994
17:40 1022 30.18 851 25.13 24.3 75.8 34 7.5 45.5 25.14 0.99
17:41 1022 30.18 851 25.13 24.2 75.6 33 7.3 45.2 25.02 0.985
17:42 1022 30.18 851 25.13 24.2 75.5 33 7.1 44.7 24.95 0.982
17:43 1022 30.18 851 25.13 24.1 75.4 36 8.3 47 24.87 0.979
17:44 1022 30.18 851 25.13 24 75.3 37 8.5 47.3 24.72 0.973
17:45 1022 30.18 851 25.13 23.9 75.1 34 7.4 45.3 24.52 0.965
17:46 1022 30.18 851 25.13 23.8 74.9 36 8.1 46.6 24.49 0.964
17:47 1022 30.18 851 25.13 23.8 74.8 35 7.6 45.6 24.47 0.963
17:48 1022 30.18 851 25.13 23.7 74.7 35 7.6 45.6 24.49 0.964
17:49 1022 30.18 851 25.13 23.7 74.6 37 8.3 46.9 24.49 0.964
17:50 1022 30.18 851 25.13 23.6 74.5 40 9.6 49.2 24.52 0.965
17:51 1022 30.18 851 25.13 23.6 74.4 36 7.8 46 24.55 0.967
17:52 1022 30.18 851 25.13 23.6 74.4 35 7.2 45 24.56 0.967
17:53 1022 30.18 851 25.13 23.7 74.6 33 6.8 44.2 24.61 0.969
17:54 1022 30.18 851 25.13 23.7 74.7 35 7.4 45.4 24.53 0.966
17:55 1022 30.18 851 25.13 23.8 74.8 33 6.9 44.4 24.56 0.967
17:56 1022 30.18 851 25.13 23.9 75 35 7.9 46.2 24.56 0.967
17:57 1022 30.18 851 25.13 23.9 75 38 9 48.3 24.64 0.97
17:58 1022 30.18 851 25.13 23.9 75 31 6.1 42.9 24.62 0.969
17:59 1022 30.18 851 25.13 23.8 74.9 31 6.1 43 24.6 0.969
18:00 1022 30.18 851 25.13 23.8 74.9 32 6.5 43.7 24.56 0.967
18:01 1022 30.18 851 25.13 23.8 74.8 36 8.1 46.6 24.53 0.966
18:02 1022 30.18 851 25.13 23.7 74.7 33 6.7 44.1 24.45 0.963
18:03 1022 30.18 851 25.13 23.6 74.6 33 6.7 44 24.31 0.957
18:04 1022 30.18 851 25.13 23.6 74.4 33 6.7 44 24.23 0.954
18:05 1022 30.18 851 25.13 23.4 74.2 34 6.9 44.5 24.06 0.947
18:06 1022 30.18 851 25.13 23.3 73.9 32 5.9 42.6 23.97 0.944
18:07 1022 30.18 851 25.13 23.2 73.7 32 5.8 42.5 23.91 0.941
18:08 1022 30.18 851 25.13 23.1 73.6 34 6.4 43.6 23.86 0.939
18:09 1022 30.18 851 25.13 23.1 73.5 37 7.8 46 23.82 0.938
18:10 1022 30.18 851 25.13 22.9 73.1 34 6.5 43.7 23.68 0.932
18:11 1022 30.18 851 25.13 22.7 72.8 32 5.3 41.5 23.57 0.928
18:12 1022 30.18 851 25.13 22.6 72.7 32 5.2 41.4 23.47 0.924
18:13 1022 30.18 851 25.13 22.6 72.7 35 6.5 43.7 23.42 0.922
18:14 1022 30.18 851 25.13 22.4 72.4 38 7.7 45.9 23.36 0.92
18:15 1022 30.18 851 25.13 22.2 71.9 36 6.6 44 23.14 0.911
18:16 1021 30.15 851 25.13 21.9 71.4 38 7.1 44.8 22.82 0.898
18:17 1021 30.15 851 25.13 21.7 71 39 7.2 45 22.57 0.889
18:18 1021 30.15 851 25.13 21.5 70.7 35 5.4 41.7 22.35 0.88
18:19 1021 30.15 851 25.13 21.6 70.8 30 3.4 38.1 22.29 0.878
18:20 1021 30.15 851 25.13 21.8 71.3 27 2.2 35.9 22.38 0.881
18:21 1021 30.15 851 25.13 22.1 71.8 26 2 35.5 22.57 0.889
18:22 1021 30.15 851 25.13 22.3 72.2 31 4.8 40.6 22.72 0.894
18:23 1021 30.15 851 25.13 22.2 71.9 30 4.1 39.3 22.65 0.892
18:24 1021 30.15 851 25.13 22 71.6 36 6.6 43.8 22.51 0.886
18:25 1021 30.15 851 25.13 21.5 70.7 39 7 44.6 21.94 0.864
18:26 1021 30.15 851 25.13 21 69.8 39 6.6 43.8 21.45 0.844
18:27 1021 30.15 851 25.13 20.6 69.1 39 6.5 43.8 21.14 0.832
18:28 1021 30.15 851 25.13 20.3 68.6 42 7 44.6 20.85 0.821
18:29 1021 30.15 851 25.13 20 68 45 7.7 45.9 20.54 0.809
18:30 1021 30.15 851 25.13 19.6 67.3 46 7.7 45.8 20.12 0.792
18:31 1021 30.15 851 25.13 19.2 66.6 47 7.9 46.2 19.73 0.777
18:32 1021 30.15 851 25.13 19 66.1 49 8 46.5 19.37 0.763
18:33 1021 30.15 851 25.13 18.6 65.5 49 7.9 46.3 19.03 0.749
18:34 1021 30.15 851 25.13 18.3 64.9 49 7.4 45.4 18.77 0.739
18:35 1021 30.15 851 25.13 18.1 64.6 48 7 44.6 18.59 0.732
18:36 1021 30.15 851 25.13 18.1 64.5 49 7.2 45 18.52 0.729
18:37 1021 30.15 851 25.13 17.9 64.1 49 7.1 44.7 18.31 0.721
18:38 1021 30.15 851 25.13 17.6 63.7 49 6.8 44.3 18.08 0.712
18:39 1021 30.15 851 25.13 17.5 63.5 51 7.3 45.2 17.94 0.706
18:40 1021 30.15 851 25.13 17.3 63.2 52 7.5 45.6 17.77 0.7
18:41 1021 30.15 851 25.13 17 62.7 54 7.7 45.9 17.52 0.69
18:42 1021 30.15 850 25.1 16.6 61.9 55 7.6 45.7 17.23 0.678
18:43 1021 30.15 850 25.1 16.4 61.4 55 7.4 45.3 16.99 0.669
18:44 1021 30.15 850 25.1 16.2 61.1 55 7.2 45 16.74 0.659
18:45 1021 30.15 850 25.1 16 60.8 55 7.2 44.9 16.58 0.653
18:46 1021 30.15 850 25.1 15.9 60.6 55 7 44.5 16.41 0.646
18:47 1021 30.15 850 25.1 15.8 60.4 55 6.8 44.3 16.28 0.641
18:48 1021 30.15 851 25.13 15.7 60.2 55 6.7 44 16.18 0.637
18:49 1021 30.15 851 25.13 15.6 60.1 54 6.5 43.6 16.07 0.633
18:50 1021 30.15 851 25.13 15.6 60.1 55 6.6 43.9 16 0.63
18:51 1021 30.15 851 25.13 15.5 59.9 54 6.3 43.3 15.84 0.624
18:52 1021 30.15 851 25.13 15.3 59.6 53 5.9 42.5 15.67 0.617
18:53 1021 30.15 850 25.1 15.3 59.5 55 6.3 43.3 15.6 0.614
18:54 1021 30.15 851 25.13 15 59 57 6.5 43.7 15.3 0.602
18:55 1021 30.15 850 25.1 14.7 58.4 59 6.7 44.1 15 0.591
18:56 1021 30.15 851 25.13 14.3 57.7 60 6.6 43.9 14.59 0.574
18:57 1021 30.15 850 25.1 13.9 57 62 6.8 44.3 14.29 0.563
18:58 1021 30.15 851 25.13 13.5 56.4 64 6.9 44.4 13.96 0.55
18:59 1021 30.15 850 25.1 13.3 55.9 65 7 44.6 13.69 0.539
19:00 1021 30.15 850 25.1 13.1 55.6 66 7 44.6 13.47 0.53
19:01 1021 30.15 850 25.1 12.9 55.2 67 6.9 44.4 13.32 0.524
19:02 1021 30.15 850 25.1 12.7 54.9 67 6.9 44.4 13.13 0.517
19:03 1021 30.15 850 25.1 12.6 54.7 67 6.7 44 13.02 0.513
19:04 1021 30.15 850 25.1 12.6 54.8 67 6.7 44.1 12.97 0.511
19:05 1021 30.15 850 25.1 12.6 54.6 66 6.5 43.7 12.94 0.509
19:06 1021 30.15 850 25.1 12.7 54.8 65 6.3 43.4 13.01 0.512
19:07 1021 30.15 850 25.1 12.9 55.2 63 6 42.9 13.18 0.519
19:08 1021 30.15 850 25.1 13 55.4 63 6.1 43 13.27 0.522
19:09 1021 30.15 850 25.1 12.9 55.2 64 6.3 43.3 13.19 0.519
19:10 1021 30.15 850 25.1 12.7 54.9 64 6.2 43.1 13.07 0.515
19:11 1021 30.15 850 25.1 12.5 54.5 65 6.1 42.9 12.85 0.506
19:12 1021 30.15 850 25.1 12.4 54.2 65 6.1 42.9 12.71 0.5
19:13 1021 30.15 850 25.1 12.1 53.8 66 6 42.9 12.51 0.493
19:14 1021 30.15 850 25.1 12 53.5 66 5.8 42.5 12.31 0.485
19:15 1021 30.15 850 25.1 11.9 53.3 66 5.7 42.3 12.22 0.481
19:16 1021 30.15 850 25.1 11.8 53.2 66 5.7 42.2 12.12 0.477
19:17 1021 30.15 850 25.1 11.7 53 66 5.5 42 12.07 0.475
19:18 1021 30.15 850 25.1 11.7 53.1 66 5.6 42.1 12.06 0.475
19:19 1021 30.15 850 25.1 11.7 53 67 5.8 42.4 12 0.472
19:20 1021 30.15 850 25.1 11.5 52.7 68 5.8 42.4 11.85 0.467
19:21 1021 30.15 850 25.1 11.3 52.3 69 5.7 42.3 11.57 0.456
19:22 1021 30.15 850 25.1 11.1 52 69 5.6 42.1 11.45 0.451
19:23 1021 30.15 850 25.1 11.1 51.9 66 5.1 41.1 11.38 0.448
19:24 1021 30.15 850 25.1 11.3 52.4 65 5 41.1 11.59 0.456
19:25 1021 30.15 850 25.1 11.5 52.8 64 5 41 11.79 0.464
19:26 1021 30.15 850 25.1 11.7 53.1 63 5 41 11.9 0.469
19:27 1021 30.15 850 25.1 11.8 53.2 63 5 41.1 11.99 0.472
19:28 1021 30.15 850 25.1 11.8 53.3 63 5 41 12.04 0.474
19:29 1021 30.15 850 25.1 11.9 53.3 64 5.3 41.5 12.01 0.473
19:30 1021 30.15 850 25.1 11.5 52.7 66 5.4 41.7 11.78 0.464
19:31 1021 30.15 850 25.1 11.3 52.3 66 5.2 41.4 11.59 0.456
19:32 1021 30.15 850 25.1 11.2 52.1 66 5.1 41.1 11.5 0.453
19:33 1021 30.15 851 25.13 11.1 52.1 66 5 41 11.44 0.45
19:34 1021 30.15 851 25.13 11 51.8 66 4.8 40.7 11.29 0.444
19:35 1021 30.15 851 25.13 10.9 51.7 66 4.9 40.8 11.23 0.442
19:36 1021 30.15 851 25.13 10.9 51.6 66 4.9 40.8 11.21 0.441
19:37 1021 30.15 851 25.13 10.9 51.7 66 4.9 40.7 11.29 0.444
19:38 1021 30.15 851 25.13 10.9 51.7 66 5 40.9 11.25 0.443
19:39 1021 30.15 851 25.13 10.9 51.6 67 5.1 41.1 11.23 0.442
19:40 1021 30.15 850 25.1 10.8 51.5 67 5.1 41.2 11.18 0.44
19:41 1021 30.15 851 25.13 10.7 51.3 67 4.9 40.9 11.09 0.437
19:42 1021 30.15 851 25.13 10.7 51.2 66 4.7 40.4 11.02 0.434
19:43 1021 30.15 850 25.1 10.7 51.2 64 4.3 39.7 10.99 0.433
19:44 1021 30.15 851 25.13 10.9 51.5 63 4.2 39.5 11.16 0.439
19:45 1021 30.15 850 25.1 11.1 52 60 3.6 38.6 11.34 0.446
19:46 1021 30.15 850 25.1 11.6 52.8 57 3.3 38 11.67 0.459
19:47 1021 30.15 850 25.1 12.1 53.8 55 3.3 38 12.14 0.478
19:48 1021 30.15 850 25.1 12.5 54.5 54 3.4 38.1 12.48 0.491
19:49 1021 30.15 850 25.1 12.7 54.9 53 3.3 38 12.72 0.501
19:50 1021 30.15 850 25.1 12.9 55.2 53 3.5 38.3 12.93 0.509
19:51 1021 30.15 850 25.1 12.9 55.1 54 3.9 39 12.94 0.509
19:52 1021 30.15 850 25.1 12.6 54.7 56 4 39.3 12.74 0.502
19:53 1021 30.15 850 25.1 12.2 54 58 4.2 39.6 12.43 0.489
19:54 1021 30.15 850 25.1 11.9 53.5 57 3.8 38.9 12.13 0.478
19:55 1021 30.15 850 25.1 11.8 53.3 57 3.8 38.8 12.05 0.474
19:56 1021 30.15 850 25.1 12 53.5 57 3.7 38.6 12.11 0.477
19:57 1021 30.15 850 25.1 12 53.6 56 3.5 38.4 12.18 0.48
19:58 1021 30.15 850 25.1 12.2 53.9 55 3.5 38.4 12.36 0.487
19:59 1021 30.15 850 25.1 12.3 54.1 54 3.4 38.1 12.42 0.489
20:00 1021 30.15 850 25.1 12.4 54.4 53 3.3 38 12.6 0.496
20:01 1021 30.15 850 25.1 12.6 54.6 52 3.1 37.5 12.74 0.502
20:02 1021 30.15 850 25.1 12.8 55.1 52 3.4 38.1 12.93 0.509
20:03 1021 30.15 850 25.1 12.8 55 55 4 39.2 12.95 0.51
20:04 1021 30.15 850 25.1 12.4 54.2 58 4.3 39.8 12.58 0.495
20:05 1021 30.15 850 25.1 11.8 53.2 61 4.5 40.1 12.11 0.477
20:06 1021 30.15 850 25.1 11.3 52.4 62 4.4 40 11.72 0.461
20:07 1021 30.15 850 25.1 11 51.7 62 3.9 39.1 11.32 0.446
20:08 1021 30.15 851 25.13 10.9 51.5 62 3.9 38.9 11.21 0.441
20:09 1021 30.15 850 25.1 10.9 51.6 62 3.9 39 11.23 0.442
20:10 1021 30.15 851 25.13 10.9 51.7 61 3.8 38.8 11.23 0.442
20:11 1021 30.15 850 25.1 11 51.7 61 3.8 38.9 11.33 0.446
20:12 1021 30.15 850 25.1 11 51.8 60 3.6 38.5 11.35 0.447
20:13 1021 30.15 850 25.1 11.1 52 59 3.6 38.4 11.4 0.449
20:14 1021 30.15 851 25.13 11.1 51.9 60 3.7 38.7 11.43 0.45
20:15 1021 30.15 850 25.1 11.1 51.9 60 3.7 38.7 11.4 0.449
20:16 1021 30.15 851 25.13 11 51.8 60 3.7 38.6 11.33 0.446
20:17 1021 30.15 850 25.1 10.9 51.7 61 3.6 38.6 11.28 0.444
20:18 1021 30.15 851 25.13 10.9 51.7 58 3.1 37.6 11.28 0.444
20:19 1021 30.15 851 25.13 11.2 52.2 56 2.8 37.1 11.46 0.451
20:20 1021 30.15 851 25.13 11.6 53 54 2.7 36.8 11.78 0.464
20:21 1021 30.15 850 25.1 12 53.7 52 2.7 36.8 12.13 0.478
20:22 1021 30.15 851 25.13 12.4 54.3 51 2.6 36.6 12.52 0.493
20:23 1021 30.15 851 25.13 12.6 54.7 51 2.7 36.9 12.78 0.503
20:24 1021 30.15 851 25.13 12.7 54.8 51 2.9 37.2 12.85 0.506
20:25 1021 30.15 851 25.13 12.7 54.8 51 3 37.4 12.87 0.507
20:26 1021 30.15 851 25.13 12.6 54.6 53 3.2 37.8 12.79 0.504
20:27 1021 30.15 851 25.13 12.4 54.2 54 3.5 38.3 12.65 0.498
20:28 1021 30.15 851 25.13 12.1 53.8 54 3.3 37.9 12.45 0.49
20:29 1021 30.15 851 25.13 12 53.7 54 3.1 37.7 12.38 0.487
20:30 1021 30.15 851 25.13 12.1 53.7 52 2.6 36.6 12.48 0.491
20:31 1021 30.15 851 25.13 12.4 54.2 51 2.7 36.8 12.69 0.5
20:32 1021 30.15 851 25.13 12.4 54.4 51 2.7 36.8 12.68 0.499
20:33 1021 30.15 851 25.13 12.5 54.5 51 2.6 36.7 12.79 0.504
20:34 1021 30.15 851 25.13 12.4 54.3 51 2.6 36.6 12.68 0.499
20:35 1021 30.15 851 25.13 12.4 54.3 51 2.7 36.8 12.68 0.499
20:36 1021 30.15 851 25.13 12.4 54.3 52 2.8 37 12.67 0.499
20:37 1021 30.15 851 25.13 12.3 54.1 53 3 37.4 12.6 0.496
20:38 1021 30.15 851 25.13 12.2 53.9 53 2.9 37.2 12.52 0.493
20:39 1021 30.15 851 25.13 12.2 53.9 52 2.7 36.8 12.53 0.493
20:40 1021 30.15 851 25.13 12.3 54.1 52 2.7 36.9 12.59 0.496
20:41 1021 30.15 851 25.13 12.3 54.2 51 2.6 36.7 12.69 0.5
20:42 1021 30.15 851 25.13 12.4 54.3 50 2.5 36.4 12.77 0.503
20:43 1021 30.15 851 25.13 12.6 54.6 50 2.5 36.5 12.86 0.506
20:44 1021 30.15 851 25.13 12.7 54.9 49 2.5 36.5 13.05 0.514
20:45 1021 30.15 851 25.13 12.9 55.2 49 2.4 36.3 13.14 0.517
20:46 1021 30.15 851 25.13 12.9 55.3 49 2.5 36.5 13.16 0.518
20:47 1021 30.15 851 25.13 12.8 55.1 50 2.8 37.1 13.12 0.517
20:48 1021 30.15 851 25.13 12.7 54.8 51 2.9 37.2 12.95 0.51
20:49 1021 30.15 851 25.13 12.3 54.2 54 3.3 38 12.68 0.499
20:50 1021 30.15 851 25.13 11.9 53.4 54 2.9 37.2 12.34 0.486
20:51 1021 30.15 851 25.13 11.7 53.1 54 2.8 37.1 12.14 0.478
20:52 1021 30.15 851 25.13 11.7 53 55 2.9 37.2 11.99 0.472
20:53 1021 30.15 851 25.13 11.6 52.8 54 2.7 36.9 11.9 0.469
20:54 1021 30.15 851 25.13 11.5 52.7 53 2.4 36.2 11.82 0.465
20:55 1021 30.15 851 25.13 11.7 53 52 2.2 35.9 12.02 0.473
20:56 1021 30.15 851 25.13 12 53.5 50 2 35.6 12.29 0.484
20:57 1021 30.15 851 25.13 12.2 54 50 2.2 36 12.51 0.493
20:58 1021 30.15 851 25.13 12.4 54.3 50 2.4 36.4 12.6 0.496
20:59 1021 30.15 851 25.13 12.4 54.3 50 2.4 36.3 12.63 0.497
21:00 1021 30.15 851 25.13 12.3 54.2 50 2.3 36.1 12.57 0.495
21:01 1021 30.15 851 25.13 12.4 54.3 49 2.2 35.9 12.66 0.498
21:02 1021 30.15 851 25.13 12.5 54.5 49 2 35.7 12.81 0.504
21:03 1021 30.15 851 25.13 12.6 54.7 48 1.9 35.4 12.92 0.509
21:04 1021 30.15 851 25.13 12.8 55 47 1.7 35.1 13.13 0.517
21:05 1021 30.15 851 25.13 13.1 55.6 45 1.6 35 13.41 0.528
21:06 1021 30.15 851 25.13 13.3 56 45 1.8 35.2 13.62 0.536
21:07 1021 30.15 851 25.13 13.4 56.1 46 2 35.6 13.68 0.539
21:08 1021 30.15 851 25.13 13.4 56 46 2.1 35.8 13.67 0.538
21:09 1021 30.15 851 25.13 13.5 56.2 44 1.6 34.9 13.81 0.544
21:10 1022 30.18 851 25.13 13.8 56.9 43 1.7 35 14.1 0.555
21:11 1021 30.15 851 25.13 14.1 57.4 42 1.5 34.6 14.39 0.567
21:12 1021 30.15 851 25.13 14.4 57.8 41 1.5 34.7 14.65 0.577
21:13 1021 30.15 851 25.13 14.5 58.1 41 1.6 34.9 14.78 0.582
21:14 1022 30.18 851 25.13 14.5 58 41 1.6 34.8 14.69 0.578
21:15 1021 30.15 851 25.13 14.4 57.9 42 1.6 34.9 14.66 0.577
21:16 1021 30.15 851 25.13 14.4 57.9 42 1.7 35.1 14.65 0.577
21:17 1021 30.15 851 25.13 14.3 57.7 41 1.4 34.5 14.57 0.574
21:18 1021 30.15 851 25.13 14.3 57.7 42 1.5 34.6 14.57 0.574
21:19 1021 30.15 851 25.13 14.2 57.6 42 1.4 34.6 14.49 0.57
21:20 1021 30.15 851 25.13 14.1 57.4 43 1.7 35 14.37 0.566
21:21 1021 30.15 851 25.13 13.9 57.1 43 1.6 34.9 14.23 0.56
21:22 1022 30.18 851 25.13 13.8 56.8 43 1.5 34.8 14.05 0.553
21:23 1021 30.15 851 25.13 13.7 56.6 44 1.8 35.3 13.95 0.549
21:24 1021 30.15 851 25.13 13.4 56.1 45 1.7 35.1 13.76 0.542
21:25 1021 30.15 851 25.13 13.3 55.9 46 2 35.6 13.59 0.535
21:26 1021 30.15 851 25.13 13.1 55.6 46 1.7 35.1 13.46 0.53
21:27 1021 30.15 851 25.13 13.1 55.6 45 1.5 34.6 13.49 0.531
21:28 1021 30.15 851 25.13 13.3 56 44 1.3 34.3 13.68 0.539
21:29 1021 30.15 851 25.13 13.8 56.8 41 0.9 33.6 14.01 0.552
21:30 1021 30.15 851 25.13 14.2 57.5 41 1.2 34.1 14.4 0.567
21:31 1021 30.15 851 25.13 14.4 57.9 40 1.2 34.1 14.59 0.574
21:32 1021 30.15 851 25.13 14.5 58.2 40 1.1 34 14.71 0.579
21:33 1021 30.15 851 25.13 14.5 58.1 41 1.5 34.7 14.72 0.58
21:34 1021 30.15 851 25.13 14.3 57.8 41 1.5 34.6 14.59 0.574
21:35 1021 30.15 851 25.13 14.2 57.6 42 1.4 34.5 14.51 0.571
21:36 1021 30.15 851 25.13 14.1 57.4 41 1.1 33.9 14.39 0.567
21:37 1021 30.15 851 25.13 14.2 57.5 40 0.7 33.3 14.56 0.573
21:38 1021 30.15 851 25.13 14.3 57.8 40 0.8 33.5 14.65 0.577
21:39 1021 30.15 851 25.13 14.5 58 38 0.4 32.8 14.76 0.581
21:40 1021 30.15 851 25.13 14.7 58.5 37 0.3 32.5 15.03 0.592
21:41 1021 30.15 851 25.13 14.9 58.8 37 0.6 33 15.16 0.597
21:42 1021 30.15 851 25.13 14.9 58.8 38 0.8 33.5 15.18 0.598
21:43 1021 30.15 851 25.13 14.7 58.5 39 1 33.8 14.95 0.589
21:44 1021 30.15 851 25.13 14.5 58.1 40 1.3 34.3 14.78 0.582
21:45 1021 30.15 851 25.13 14.2 57.6 42 1.5 34.6 14.57 0.574
21:46 1021 30.15 851 25.13 14 57.1 42 1.2 34.2 14.35 0.565
21:47 1021 30.15 851 25.13 13.9 57 43 1.5 34.8 14.22 0.56
21:48 1021 30.15 851 25.13 13.7 56.6 42 1.1 34 14.05 0.553
21:49 1021 30.15 851 25.13 13.7 56.6 42 0.9 33.6 14.01 0.552
21:50 1021 30.15 851 25.13 13.7 56.7 40 0.5 33 14.08 0.554
21:51 1021 30.15 851 25.13 14.1 57.4 39 0.4 32.7 14.39 0.567
21:52 1021 30.15 851 25.13 14.6 58.2 39 0.9 33.7 14.76 0.581
21:53 1021 30.15 851 25.13 14.7 58.5 39 1.1 33.9 14.92 0.587
21:54 1021 30.15 851 25.13 14.7 58.5 40 1.3 34.3 14.96 0.589
21:55 1021 30.15 851 25.13 14.5 58.1 41 1.5 34.6 14.81 0.583
21:56 1021 30.15 851 25.13 14.3 57.7 41 1.4 34.5 14.67 0.578
21:57 1021 30.15 851 25.13 14.3 57.7 41 1.2 34.1 14.61 0.575
21:58 1021 30.15 851 25.13 14.3 57.7 41 1.4 34.5 14.62 0.576
21:59 1021 30.15 851 25.13 14.2 57.5 42 1.5 34.7 14.55 0.573
22:00 1021 30.15 851 25.13 14 57.2 43 1.8 35.2 14.36 0.565
22:01 1021 30.15 851 25.13 13.7 56.7 45 2 35.6 14.14 0.557
22:02 1021 30.15 851 25.13 13.4 56.2 45 1.8 35.2 13.88 0.546
22:03 1021 30.15 851 25.13 13.2 55.8 45 1.5 34.8 13.65 0.537
22:04 1021 30.15 851 25.13 13.1 55.5 45 1.5 34.7 13.49 0.531
22:05 1021 30.15 851 25.13 13 55.4 44 1.1 34 13.39 0.527
22:06 1021 30.15 851 25.13 13 55.4 43 0.9 33.5 13.41 0.528
22:07 1021 30.15 851 25.13 13.2 55.8 41 0.3 32.6 13.59 0.535
22:08 1021 30.15 851 25.13 13.5 56.4 41 0.6 33 13.93 0.548
22:09 1021 30.15 851 25.13 13.7 56.7 41 0.7 33.3 14.07 0.554
22:10 1021 30.15 851 25.13 13.9 56.9 40 0.6 33 14.14 0.557
22:11 1021 30.15 851 25.13 13.9 57.1 40 0.5 32.9 14.2 0.559
22:12 1021 30.15 851 25.13 14 57.3 39 0.4 32.7 14.28 0.562
22:13 1021 30.15 851 25.13 14.2 57.5 40 0.8 33.4 14.36 0.565
22:14 1021 30.15 851 25.13 14.2 57.6 38 0.1 32.2 14.48 0.57
22:15 1021 30.15 851 25.13 14.5 58.1 37 0.2 32.4 14.74 0.58
22:16 1021 30.15 851 25.13 14.9 58.8 36 -0.1 31.8 15.09 0.594
22:17 1021 30.15 851 25.13 15.3 59.6 35 0.1 32.2 15.52 0.611
22:18 1021 30.15 851 25.13 15.6 60 35 0.2 32.3 15.76 0.62
22:19 1021 30.15 851 25.13 15.7 60.2 36 0.7 33.2 15.89 0.626
22:20 1021 30.15 851 25.13 15.5 60 37 1 33.7 15.8 0.622
22:21 1021 30.15 851 25.13 15.3 59.6 38 1.2 34.1 15.65 0.616
22:22 1021 30.15 851 25.13 15.2 59.3 38 1.1 34 15.47 0.609
22:23 1022 30.18 851 25.13 14.9 58.9 38 1 33.8 15.27 0.601
22:24 1022 30.18 851 25.13 14.7 58.5 39 0.8 33.5 15.07 0.593
22:25 1022 30.18 851 25.13 14.6 58.3 39 0.9 33.7 14.97 0.589
22:26 1022 30.18 851 25.13 14.5 58.2 40 1.1 34 14.88 0.586
22:27 1022 30.18 851 25.13 14.4 57.9 39 0.8 33.4 14.75 0.581
22:28 1022 30.18 851 25.13 14.3 57.8 40 1.1 34 14.66 0.577
22:29 1022 30.18 851 25.13 14.1 57.4 41 1.2 34.1 14.46 0.569
22:30 1022 30.18 851 25.13 13.9 57 44 1.9 35.4 14.26 0.561
22:31 1022 30.18 851 25.13 13.5 56.3 47 2.5 36.4 13.9 0.547
22:32 1022 30.18 851 25.13 12.8 55.1 49 2.4 36.3 13.27 0.522
22:33 1022 30.18 851 25.13 12.3 54.1 49 1.9 35.5 12.67 0.499
22:34 1022 30.18 851 25.13 12.1 53.7 49 1.7 35 12.42 0.489
22:35 1022 30.18 851 25.13 12 53.7 49 1.6 34.8 12.41 0.489
22:36 1022 30.18 851 25.13 12.1 53.7 48 1.5 34.6 12.42 0.489
22:37 1022 30.18 851 25.13 12.1 53.8 48 1.5 34.8 12.48 0.491
22:38 1022 30.18 851 25.13 12.2 53.9 48 1.5 34.7 12.53 0.493
22:39 1022 30.18 851 25.13 12.2 54 47 1.2 34.1 12.6 0.496
22:40 1022 30.18 851 25.13 12.4 54.3 47 1.3 34.4 12.76 0.502
22:41 1022 30.18 851 25.13 12.5 54.4 46 1.2 34.2 12.81 0.504
22:42 1022 30.18 851 25.13 12.6 54.6 45 1 33.7 12.91 0.508
22:43 1022 30.18 851 25.13 12.7 54.9 44 0.8 33.5 13.05 0.514
22:44 1022 30.18 851 25.13 12.9 55.3 44 0.9 33.6 13.24 0.521
22:45 1022 30.18 851 25.13 13 55.5 43 0.9 33.7 13.36 0.526
22:46 1022 30.18 851 25.13 13.1 55.5 44 1.2 34.2 13.39 0.527
22:47 1022 30.18 851 25.13 13 55.3 46 1.6 34.9 13.27 0.522
22:48 1022 30.18 851 25.13 12.7 54.8 47 1.8 35.3 13.06 0.514
22:49 1022 30.18 851 25.13 12.4 54.3 48 1.8 35.2 12.75 0.502
22:50 1022 30.18 851 25.13 12.2 54 48 1.5 34.7 12.56 0.494
22:51 1022 30.18 851 25.13 12.2 54 47 1.2 34.1 12.57 0.495
22:52 1022 30.18 851 25.13 12.3 54.2 47 1.3 34.3 12.67 0.499
22:53 1022 30.18 851 25.13 12.3 54.1 47 1.3 34.4 12.68 0.499
22:54 1022 30.18 851 25.13 12.3 54.1 48 1.6 34.8 12.62 0.497
22:55 1022 30.18 851 25.13 12.2 54 47 1.3 34.3 12.56 0.494
22:56 1022 30.18 851 25.13 12.2 54 47 1.4 34.5 12.57 0.495
22:57 1022 30.18 851 25.13 12.2 54 47 1.4 34.5 12.54 0.494
22:58 1022 30.18 851 25.13 12.2 54 47 1.4 34.6 12.53 0.493
22:59 1022 30.18 851 25.13 12.2 53.9 47 1.4 34.4 12.54 0.494
23:00 1022 30.18 851 25.13 12.2 54 46 1 33.8 12.55 0.494
23:01 1022 30.18 851 25.13 12.4 54.3 45 0.9 33.7 12.71 0.5
23:02 1022 30.18 851 25.13 12.6 54.6 44 0.9 33.5 12.95 0.51
23:03 1022 30.18 851 25.13 12.8 55 43 0.7 33.3 13.11 0.516
23:04 1022 30.18 851 25.13 12.9 55.2 44 0.9 33.6 13.23 0.521
23:05 1022 30.18 851 25.13 13 55.4 43 0.9 33.6 13.36 0.526
23:06 1022 30.18 851 25.13 13.1 55.5 44 1.2 34.1 13.44 0.529
23:07 1022 30.18 851 25.13 13 55.3 44 1.2 34.2 13.31 0.524
23:08 1022 30.18 851 25.13 12.9 55.1 44 1 33.8 13.22 0.52
23:09 1022 30.18 851 25.13 12.9 55.1 44 0.9 33.7 13.19 0.519
23:10 1022 30.18 851 25.13 13 55.3 43 0.8 33.4 13.27 0.522
23:11 1022 30.18 851 25.13 13 55.3 44 0.9 33.7 13.32 0.524
23:12 1022 30.18 851 25.13 13 55.4 43 0.9 33.7 13.34 0.525
23:13 1022 30.18 851 25.13 13 55.4 44 0.9 33.7 13.38 0.527
23:14 1022 30.18 851 25.13 12.9 55.3 44 1.1 34 13.3 0.524
23:15 1022 30.18 851 25.13 12.8 55.1 45 1.3 34.3 13.22 0.52
23:16 1022 30.18 851 25.13 12.7 54.8 45 1.2 34.2 13.07 0.515
23:17 1021 30.15 851 25.13 12.6 54.7 45 1.1 34.1 12.98 0.511
23:18 1022 30.18 851 25.13 12.5 54.6 46 1.2 34.2 12.9 0.508
23:19 1022 30.18 851 25.13 12.4 54.4 45 0.9 33.6 12.82 0.505
23:20 1022 30.18 851 25.13 12.5 54.4 45 0.9 33.6 12.82 0.505
23:21 1022 30.18 851 25.13 12.5 54.5 44 0.7 33.2 12.85 0.506
23:22 1022 30.18 851 25.13 12.5 54.4 46 1.1 34.1 12.81 0.504
23:23 1022 30.18 851 25.13 12.3 54.1 46 1.1 33.9 12.59 0.496
23:24 1022 30.18 851 25.13 12 53.7 46 0.9 33.7 12.41 0.489
23:25 1022 30.18 851 25.13 12 53.5 47 1.1 34 12.36 0.487
23:26 1022 30.18 851 25.13 11.9 53.4 48 1.3 34.3 12.26 0.483
23:27 1021 30.15 851 25.13 11.8 53.2 48 1.1 34 12.17 0.479
23:28 1021 30.15 851 25.13 11.8 53.3 48 1.1 34 12.21 0.481
23:29 1021 30.15 851 25.13 11.9 53.4 48 1.4 34.5 12.23 0.481
23:30 1021 30.15 851 25.13 11.8 53.2 49 1.5 34.7 12.18 0.48
23:31 1021 30.15 851 25.13 11.7 53 48 1.1 34 12.09 0.476
23:32 1021 30.15 851 25.13 11.8 53.2 47 0.9 33.6 12.12 0.477
23:33 1021 30.15 851 25.13 11.9 53.3 47 1 33.8 12.17 0.479
23:34 1021 30.15 851 25.13 11.9 53.4 49 1.5 34.6 12.18 0.48
23:35 1021 30.15 851 25.13 11.7 53 50 1.8 35.2 11.93 0.47
23:36 1021 30.15 851 25.13 11.4 52.5 51 1.5 34.8 11.71 0.461
23:37 1021 30.15 851 25.13 11.2 52.2 52 1.7 35 11.53 0.454
23:38 1021 30.15 851 25.13 10.9 51.7 53 1.8 35.3 11.29 0.444
23:39 1021 30.15 851 25.13 10.6 51 56 2.1 35.9 10.98 0.432
23:40 1021 30.15 851 25.13 10.1 50.2 57 2 35.5 10.6 0.417
23:41 1021 30.15 851 25.13 9.9 49.8 58 2 35.7 10.29 0.405
23:42 1021 30.15 851 25.13 9.6 49.3 60 2.2 35.9 9.98 0.393
23:43 1022 30.18 851 25.13 9.2 48.6 62 2.3 36.2 9.64 0.38
23:44 1021 30.15 851 25.13 8.8 47.8 63 2.2 35.9 9.2 0.362
23:45 1021 30.15 851 25.13 8.5 47.3 63 1.8 35.3 8.92 0.351
23:46 1021 30.15 851 25.13 8.5 47.2 63 1.9 35.4 8.86 0.349
23:47 1021 30.15 851 25.13 8.5 47.2 63 1.9 35.4 8.85 0.348
23:48 1021 30.15 851 25.13 8.4 47.1 63 1.7 35.1 8.76 0.345
23:49 1021 30.15 851 25.13 8.5 47.2 60 1.3 34.3 8.85 0.348
23:50 1021 30.15 851 25.13 9 48.1 55 0.3 32.6 9.34 0.368
23:51 1021 30.15 851 25.13 9.9 49.7 51 0.2 32.4 10.17 0.4
23:52 1021 30.15 851 25.13 10.7 51.2 49 0.4 32.8 10.98 0.432
23:53 1021 30.15 851 25.13 11.3 52.3 47 0.5 33 11.56 0.455
23:54 1021 30.15 851 25.13 11.7 53 47 0.6 33.2 11.96 0.471
23:55 1021 30.15 851 25.13 11.9 53.4 47 0.9 33.6 12.19 0.48
23:56 1022 30.18 851 25.13 11.9 53.5 47 1 33.8 12.27 0.483
23:57 1021 30.15 851 25.13 11.9 53.5 47 1 33.7 12.23 0.481
23:58 1022 30.18 851 25.13 11.8 53.3 48 1.2 34.2 12.13 0.478
23:59 1021 30.15 851 25.13 11.6 52.8 49 1.2 34.1 11.94 0.47
24:00 1021 30.15 851 25.13 11.4 52.6 49 1.1 34 11.8 0.465